<?xml version="1.0" encoding="UTF-8" standalone="no" ?>
<gpx xmlns="http://www.topografix.com/GPX/1/1" xmlns:xsi="http://www.w3.org/2001/XMLSchema-instance" xsi:schemaLocation="http://www.topografix.com/GPX/1/1 http://www.topografix.com/GPX/1/1/gpx.xsd" version="1.1" creator="VisuGPX - https://www.visugpx.com">
  <metadata>
    <name>CARREFOUR DE LUYNES 5</name>
  </metadata>
  <trk>
    <name><![CDATA[CARREFOUR DE LUYNES 5]]></name>
    <trkseg>
      <trkpt lat="48.5918" lon="1.96632">
        <ele>21.29</ele>
        <time>2016-10-27T07:18:00Z</time>
      </trkpt>
      <trkpt lat="48.59186" lon="1.96632">
        <ele>21.29</ele>
        <time>2016-10-27T07:18:01Z</time>
      </trkpt>
      <trkpt lat="48.59205" lon="1.96604">
        <ele>19.84</ele>
        <time>2016-10-27T07:18:26Z</time>
      </trkpt>
      <trkpt lat="48.59204" lon="1.96603">
        <ele>21.77</ele>
        <time>2016-10-27T07:18:28Z</time>
      </trkpt>
      <trkpt lat="48.59204" lon="1.96602">
        <ele>20.81</ele>
        <time>2016-10-27T07:18:30Z</time>
      </trkpt>
      <trkpt lat="48.59204" lon="1.96597">
        <ele>21.29</ele>
        <time>2016-10-27T07:18:46Z</time>
      </trkpt>
      <trkpt lat="48.59202" lon="1.9659">
        <ele>21.29</ele>
        <time>2016-10-27T07:18:59Z</time>
      </trkpt>
      <trkpt lat="48.59206" lon="1.96595">
        <ele>21.29</ele>
        <time>2016-10-27T07:19:12Z</time>
      </trkpt>
      <trkpt lat="48.59206" lon="1.96599">
        <ele>21.29</ele>
        <time>2016-10-27T07:19:25Z</time>
      </trkpt>
      <trkpt lat="48.5919" lon="1.9661">
        <ele>21.29</ele>
        <time>2016-10-27T07:19:41Z</time>
      </trkpt>
      <trkpt lat="48.59185" lon="1.96618">
        <ele>27.53</ele>
        <time>2016-10-27T07:19:54Z</time>
      </trkpt>
      <trkpt lat="48.59185" lon="1.96619">
        <ele>33.3</ele>
        <time>2016-10-27T07:19:56Z</time>
      </trkpt>
      <trkpt lat="48.59185" lon="1.9662">
        <ele>39.07</ele>
        <time>2016-10-27T07:19:58Z</time>
      </trkpt>
      <trkpt lat="48.59184" lon="1.96621">
        <ele>43.88</ele>
        <time>2016-10-27T07:20:00Z</time>
      </trkpt>
      <trkpt lat="48.59184" lon="1.96623">
        <ele>48.68</ele>
        <time>2016-10-27T07:20:02Z</time>
      </trkpt>
      <trkpt lat="48.59184" lon="1.96624">
        <ele>53.01</ele>
        <time>2016-10-27T07:20:04Z</time>
      </trkpt>
      <trkpt lat="48.59184" lon="1.96624">
        <ele>56.86</ele>
        <time>2016-10-27T07:20:06Z</time>
      </trkpt>
      <trkpt lat="48.59184" lon="1.96624">
        <ele>60.7</ele>
        <time>2016-10-27T07:20:08Z</time>
      </trkpt>
      <trkpt lat="48.59183" lon="1.96625">
        <ele>64.07</ele>
        <time>2016-10-27T07:20:10Z</time>
      </trkpt>
      <trkpt lat="48.59183" lon="1.96625">
        <ele>66.95</ele>
        <time>2016-10-27T07:20:12Z</time>
      </trkpt>
      <trkpt lat="48.59182" lon="1.96625">
        <ele>71.27</ele>
        <time>2016-10-27T07:20:15Z</time>
      </trkpt>
      <trkpt lat="48.59182" lon="1.96625">
        <ele>75.12</ele>
        <time>2016-10-27T07:20:18Z</time>
      </trkpt>
      <trkpt lat="48.59181" lon="1.96625">
        <ele>78.48</ele>
        <time>2016-10-27T07:20:21Z</time>
      </trkpt>
      <trkpt lat="48.59181" lon="1.96625">
        <ele>81.85</ele>
        <time>2016-10-27T07:20:24Z</time>
      </trkpt>
      <trkpt lat="48.5918" lon="1.96625">
        <ele>85.21</ele>
        <time>2016-10-27T07:20:28Z</time>
      </trkpt>
      <trkpt lat="48.5918" lon="1.96625">
        <ele>88.58</ele>
        <time>2016-10-27T07:20:32Z</time>
      </trkpt>
      <trkpt lat="48.5918" lon="1.96626">
        <ele>91.94</ele>
        <time>2016-10-27T07:20:37Z</time>
      </trkpt>
      <trkpt lat="48.5918" lon="1.96626">
        <ele>95.31</ele>
        <time>2016-10-27T07:20:43Z</time>
      </trkpt>
      <trkpt lat="48.5918" lon="1.96626">
        <ele>97.23</ele>
        <time>2016-10-27T07:20:47Z</time>
      </trkpt>
      <trkpt lat="48.5918" lon="1.96627">
        <ele>100.11</ele>
        <time>2016-10-27T07:20:54Z</time>
      </trkpt>
      <trkpt lat="48.59179" lon="1.96625">
        <ele>103.48</ele>
        <time>2016-10-27T07:21:00Z</time>
      </trkpt>
      <trkpt lat="48.59179" lon="1.96625">
        <ele>106.36</ele>
        <time>2016-10-27T07:21:07Z</time>
      </trkpt>
      <trkpt lat="48.59179" lon="1.96625">
        <ele>109.25</ele>
        <time>2016-10-27T07:21:18Z</time>
      </trkpt>
      <trkpt lat="48.59178" lon="1.96625">
        <ele>112.61</ele>
        <time>2016-10-27T07:21:30Z</time>
      </trkpt>
      <trkpt lat="48.59177" lon="1.96624">
        <ele>114.53</ele>
        <time>2016-10-27T07:21:45Z</time>
      </trkpt>
      <trkpt lat="48.59177" lon="1.96623">
        <ele>115.5</ele>
        <time>2016-10-27T07:22:02Z</time>
      </trkpt>
      <trkpt lat="48.59175" lon="1.96622">
        <ele>98.67</ele>
        <time>2016-10-27T07:22:23Z</time>
      </trkpt>
      <trkpt lat="48.59175" lon="1.96622">
        <ele>129.92</ele>
        <time>2016-10-27T07:22:24Z</time>
      </trkpt>
      <trkpt lat="48.59175" lon="1.96622">
        <ele>112.61</ele>
        <time>2016-10-27T07:22:25Z</time>
      </trkpt>
      <trkpt lat="48.59175" lon="1.96622">
        <ele>117.42</ele>
        <time>2016-10-27T07:22:26Z</time>
      </trkpt>
      <trkpt lat="48.59175" lon="1.96622">
        <ele>114.05</ele>
        <time>2016-10-27T07:22:28Z</time>
      </trkpt>
      <trkpt lat="48.59176" lon="1.96622">
        <ele>120.78</ele>
        <time>2016-10-27T07:22:29Z</time>
      </trkpt>
      <trkpt lat="48.59176" lon="1.96622">
        <ele>108.77</ele>
        <time>2016-10-27T07:22:30Z</time>
      </trkpt>
      <trkpt lat="48.59176" lon="1.96622">
        <ele>118.38</ele>
        <time>2016-10-27T07:22:31Z</time>
      </trkpt>
      <trkpt lat="48.59176" lon="1.96622">
        <ele>111.65</ele>
        <time>2016-10-27T07:22:33Z</time>
      </trkpt>
      <trkpt lat="48.59176" lon="1.96622">
        <ele>118.38</ele>
        <time>2016-10-27T07:22:34Z</time>
      </trkpt>
      <trkpt lat="48.59176" lon="1.96623">
        <ele>108.29</ele>
        <time>2016-10-27T07:22:36Z</time>
      </trkpt>
      <trkpt lat="48.59176" lon="1.96623">
        <ele>120.3</ele>
        <time>2016-10-27T07:22:37Z</time>
      </trkpt>
      <trkpt lat="48.59176" lon="1.96623">
        <ele>118.86</ele>
        <time>2016-10-27T07:22:38Z</time>
      </trkpt>
      <trkpt lat="48.59176" lon="1.96623">
        <ele>110.21</ele>
        <time>2016-10-27T07:22:39Z</time>
      </trkpt>
      <trkpt lat="48.59176" lon="1.96623">
        <ele>120.78</ele>
        <time>2016-10-27T07:22:40Z</time>
      </trkpt>
      <trkpt lat="48.59176" lon="1.96623">
        <ele>115.98</ele>
        <time>2016-10-27T07:22:41Z</time>
      </trkpt>
      <trkpt lat="48.59176" lon="1.96622">
        <ele>99.63</ele>
        <time>2016-10-27T07:22:44Z</time>
      </trkpt>
      <trkpt lat="48.59176" lon="1.96622">
        <ele>130.88</ele>
        <time>2016-10-27T07:22:45Z</time>
      </trkpt>
      <trkpt lat="48.59176" lon="1.96622">
        <ele>100.11</ele>
        <time>2016-10-27T07:22:46Z</time>
      </trkpt>
      <trkpt lat="48.59177" lon="1.96623">
        <ele>127.03</ele>
        <time>2016-10-27T07:22:48Z</time>
      </trkpt>
      <trkpt lat="48.59177" lon="1.96623">
        <ele>104.44</ele>
        <time>2016-10-27T07:22:49Z</time>
      </trkpt>
      <trkpt lat="48.59177" lon="1.96622">
        <ele>124.63</ele>
        <time>2016-10-27T07:22:50Z</time>
      </trkpt>
      <trkpt lat="48.59177" lon="1.96622">
        <ele>110.21</ele>
        <time>2016-10-27T07:22:51Z</time>
      </trkpt>
      <trkpt lat="48.59177" lon="1.96622">
        <ele>119.34</ele>
        <time>2016-10-27T07:22:52Z</time>
      </trkpt>
      <trkpt lat="48.59177" lon="1.96622">
        <ele>114.05</ele>
        <time>2016-10-27T07:22:53Z</time>
      </trkpt>
      <trkpt lat="48.59177" lon="1.96622">
        <ele>121.26</ele>
        <time>2016-10-27T07:22:55Z</time>
      </trkpt>
      <trkpt lat="48.59177" lon="1.96622">
        <ele>106.84</ele>
        <time>2016-10-27T07:22:56Z</time>
      </trkpt>
      <trkpt lat="48.59177" lon="1.96621">
        <ele>127.03</ele>
        <time>2016-10-27T07:22:57Z</time>
      </trkpt>
      <trkpt lat="48.59177" lon="1.96621">
        <ele>104.44</ele>
        <time>2016-10-27T07:22:58Z</time>
      </trkpt>
      <trkpt lat="48.59177" lon="1.96621">
        <ele>126.55</ele>
        <time>2016-10-27T07:22:59Z</time>
      </trkpt>
      <trkpt lat="48.59177" lon="1.96621">
        <ele>105.4</ele>
        <time>2016-10-27T07:23:00Z</time>
      </trkpt>
      <trkpt lat="48.59177" lon="1.96621">
        <ele>124.15</ele>
        <time>2016-10-27T07:23:01Z</time>
      </trkpt>
      <trkpt lat="48.59177" lon="1.96621">
        <ele>116.46</ele>
        <time>2016-10-27T07:23:02Z</time>
      </trkpt>
      <trkpt lat="48.59179" lon="1.96616">
        <ele>116.46</ele>
        <time>2016-10-27T07:23:17Z</time>
      </trkpt>
      <trkpt lat="48.59179" lon="1.96616">
        <ele>111.17</ele>
        <time>2016-10-27T07:23:23Z</time>
      </trkpt>
      <trkpt lat="48.59179" lon="1.96616">
        <ele>120.78</ele>
        <time>2016-10-27T07:23:24Z</time>
      </trkpt>
      <trkpt lat="48.59178" lon="1.96617">
        <ele>115.98</ele>
        <time>2016-10-27T07:23:25Z</time>
      </trkpt>
      <trkpt lat="48.59178" lon="1.96617">
        <ele>108.77</ele>
        <time>2016-10-27T07:23:26Z</time>
      </trkpt>
      <trkpt lat="48.59177" lon="1.96617">
        <ele>123.67</ele>
        <time>2016-10-27T07:23:27Z</time>
      </trkpt>
      <trkpt lat="48.59177" lon="1.96616">
        <ele>114.05</ele>
        <time>2016-10-27T07:23:28Z</time>
      </trkpt>
      <trkpt lat="48.59176" lon="1.96616">
        <ele>124.15</ele>
        <time>2016-10-27T07:23:30Z</time>
      </trkpt>
      <trkpt lat="48.59176" lon="1.96616">
        <ele>113.57</ele>
        <time>2016-10-27T07:23:31Z</time>
      </trkpt>
      <trkpt lat="48.59176" lon="1.96616">
        <ele>116.46</ele>
        <time>2016-10-27T07:23:32Z</time>
      </trkpt>
      <trkpt lat="48.59176" lon="1.96616">
        <ele>120.78</ele>
        <time>2016-10-27T07:23:33Z</time>
      </trkpt>
      <trkpt lat="48.59176" lon="1.96616">
        <ele>111.65</ele>
        <time>2016-10-27T07:23:34Z</time>
      </trkpt>
      <trkpt lat="48.59176" lon="1.96616">
        <ele>120.78</ele>
        <time>2016-10-27T07:23:35Z</time>
      </trkpt>
      <trkpt lat="48.59176" lon="1.96615">
        <ele>116.46</ele>
        <time>2016-10-27T07:23:36Z</time>
      </trkpt>
      <trkpt lat="48.59176" lon="1.96615">
        <ele>113.09</ele>
        <time>2016-10-27T07:23:37Z</time>
      </trkpt>
      <trkpt lat="48.59176" lon="1.96615">
        <ele>118.86</ele>
        <time>2016-10-27T07:23:38Z</time>
      </trkpt>
      <trkpt lat="48.59176" lon="1.96615">
        <ele>113.57</ele>
        <time>2016-10-27T07:23:39Z</time>
      </trkpt>
      <trkpt lat="48.59176" lon="1.96615">
        <ele>119.34</ele>
        <time>2016-10-27T07:23:40Z</time>
      </trkpt>
      <trkpt lat="48.59176" lon="1.96614">
        <ele>114.05</ele>
        <time>2016-10-27T07:23:41Z</time>
      </trkpt>
      <trkpt lat="48.59176" lon="1.96614">
        <ele>113.57</ele>
        <time>2016-10-27T07:23:44Z</time>
      </trkpt>
      <trkpt lat="48.59177" lon="1.96613">
        <ele>115.5</ele>
        <time>2016-10-27T07:23:47Z</time>
      </trkpt>
      <trkpt lat="48.59177" lon="1.96613">
        <ele>117.9</ele>
        <time>2016-10-27T07:23:50Z</time>
      </trkpt>
      <trkpt lat="48.59177" lon="1.96613">
        <ele>113.57</ele>
        <time>2016-10-27T07:23:51Z</time>
      </trkpt>
      <trkpt lat="48.59177" lon="1.96613">
        <ele>118.38</ele>
        <time>2016-10-27T07:23:52Z</time>
      </trkpt>
      <trkpt lat="48.59177" lon="1.96613">
        <ele>115.01</ele>
        <time>2016-10-27T07:23:53Z</time>
      </trkpt>
      <trkpt lat="48.59176" lon="1.96613">
        <ele>116.46</ele>
        <time>2016-10-27T07:23:59Z</time>
      </trkpt>
      <trkpt lat="48.59176" lon="1.96613">
        <ele>111.65</ele>
        <time>2016-10-27T07:24:04Z</time>
      </trkpt>
      <trkpt lat="48.59176" lon="1.96612">
        <ele>122.22</ele>
        <time>2016-10-27T07:24:05Z</time>
      </trkpt>
      <trkpt lat="48.59176" lon="1.96612">
        <ele>118.38</ele>
        <time>2016-10-27T07:24:06Z</time>
      </trkpt>
      <trkpt lat="48.59176" lon="1.96612">
        <ele>114.53</ele>
        <time>2016-10-27T07:24:07Z</time>
      </trkpt>
      <trkpt lat="48.59176" lon="1.96613">
        <ele>121.74</ele>
        <time>2016-10-27T07:24:10Z</time>
      </trkpt>
      <trkpt lat="48.59176" lon="1.96613">
        <ele>115.98</ele>
        <time>2016-10-27T07:24:11Z</time>
      </trkpt>
      <trkpt lat="48.59176" lon="1.96613">
        <ele>113.09</ele>
        <time>2016-10-27T07:24:12Z</time>
      </trkpt>
      <trkpt lat="48.59176" lon="1.96613">
        <ele>115.01</ele>
        <time>2016-10-27T07:24:13Z</time>
      </trkpt>
      <trkpt lat="48.59176" lon="1.96613">
        <ele>119.34</ele>
        <time>2016-10-27T07:24:15Z</time>
      </trkpt>
      <trkpt lat="48.59175" lon="1.96613">
        <ele>117.42</ele>
        <time>2016-10-27T07:24:18Z</time>
      </trkpt>
      <trkpt lat="48.59176" lon="1.96614">
        <ele>115.98</ele>
        <time>2016-10-27T07:24:25Z</time>
      </trkpt>
      <trkpt lat="48.59176" lon="1.96616">
        <ele>116.46</ele>
        <time>2016-10-27T07:24:51Z</time>
      </trkpt>
      <trkpt lat="48.59177" lon="1.96616">
        <ele>119.82</ele>
        <time>2016-10-27T07:25:06Z</time>
      </trkpt>
      <trkpt lat="48.59177" lon="1.96616">
        <ele>116.46</ele>
        <time>2016-10-27T07:25:08Z</time>
      </trkpt>
      <trkpt lat="48.59177" lon="1.96616">
        <ele>116.94</ele>
        <time>2016-10-27T07:25:09Z</time>
      </trkpt>
      <trkpt lat="48.59174" lon="1.96623">
        <ele>116.46</ele>
        <time>2016-10-27T07:25:20Z</time>
      </trkpt>
      <trkpt lat="48.59173" lon="1.96621">
        <ele>115.98</ele>
        <time>2016-10-27T07:25:40Z</time>
      </trkpt>
      <trkpt lat="48.59175" lon="1.96615">
        <ele>116.46</ele>
        <time>2016-10-27T07:25:59Z</time>
      </trkpt>
      <trkpt lat="48.59177" lon="1.96613">
        <ele>115.98</ele>
        <time>2016-10-27T07:26:19Z</time>
      </trkpt>
      <trkpt lat="48.59176" lon="1.96614">
        <ele>115.98</ele>
        <time>2016-10-27T07:26:36Z</time>
      </trkpt>
      <trkpt lat="48.59175" lon="1.96614">
        <ele>115.98</ele>
        <time>2016-10-27T07:26:59Z</time>
      </trkpt>
      <trkpt lat="48.59175" lon="1.96613">
        <ele>115.98</ele>
        <time>2016-10-27T07:27:21Z</time>
      </trkpt>
      <trkpt lat="48.59168" lon="1.96611">
        <ele>115.5</ele>
        <time>2016-10-27T07:27:40Z</time>
      </trkpt>
      <trkpt lat="48.59162" lon="1.9661">
        <ele>115.01</ele>
        <time>2016-10-27T07:27:46Z</time>
      </trkpt>
      <trkpt lat="48.59157" lon="1.96628">
        <ele>115.01</ele>
        <time>2016-10-27T07:28:00Z</time>
      </trkpt>
      <trkpt lat="48.59153" lon="1.96665">
        <ele>115.01</ele>
        <time>2016-10-27T07:28:16Z</time>
      </trkpt>
      <trkpt lat="48.59152" lon="1.96682">
        <ele>115.01</ele>
        <time>2016-10-27T07:28:24Z</time>
      </trkpt>
      <trkpt lat="48.59154" lon="1.96713">
        <ele>114.53</ele>
        <time>2016-10-27T07:28:40Z</time>
      </trkpt>
      <trkpt lat="48.59151" lon="1.96723">
        <ele>115.5</ele>
        <time>2016-10-27T07:28:44Z</time>
      </trkpt>
      <trkpt lat="48.59147" lon="1.96732">
        <ele>115.01</ele>
        <time>2016-10-27T07:28:48Z</time>
      </trkpt>
      <trkpt lat="48.59144" lon="1.96741">
        <ele>114.53</ele>
        <time>2016-10-27T07:28:51Z</time>
      </trkpt>
      <trkpt lat="48.59141" lon="1.96758">
        <ele>115.01</ele>
        <time>2016-10-27T07:28:58Z</time>
      </trkpt>
      <trkpt lat="48.59138" lon="1.96768">
        <ele>114.53</ele>
        <time>2016-10-27T07:29:03Z</time>
      </trkpt>
      <trkpt lat="48.59127" lon="1.96794">
        <ele>113.57</ele>
        <time>2016-10-27T07:29:18Z</time>
      </trkpt>
      <trkpt lat="48.5912" lon="1.96819">
        <ele>113.09</ele>
        <time>2016-10-27T07:29:30Z</time>
      </trkpt>
      <trkpt lat="48.5911" lon="1.96851">
        <ele>113.09</ele>
        <time>2016-10-27T07:29:47Z</time>
      </trkpt>
      <trkpt lat="48.59104" lon="1.96876">
        <ele>114.05</ele>
        <time>2016-10-27T07:30:00Z</time>
      </trkpt>
      <trkpt lat="48.59104" lon="1.96881">
        <ele>113.09</ele>
        <time>2016-10-27T07:30:02Z</time>
      </trkpt>
      <trkpt lat="48.591" lon="1.9689">
        <ele>113.09</ele>
        <time>2016-10-27T07:30:06Z</time>
      </trkpt>
      <trkpt lat="48.59089" lon="1.96925">
        <ele>111.65</ele>
        <time>2016-10-27T07:30:23Z</time>
      </trkpt>
      <trkpt lat="48.59083" lon="1.96956">
        <ele>112.13</ele>
        <time>2016-10-27T07:30:37Z</time>
      </trkpt>
      <trkpt lat="48.59073" lon="1.96988">
        <ele>112.13</ele>
        <time>2016-10-27T07:30:52Z</time>
      </trkpt>
      <trkpt lat="48.59067" lon="1.97021">
        <ele>114.05</ele>
        <time>2016-10-27T07:31:07Z</time>
      </trkpt>
      <trkpt lat="48.59066" lon="1.97027">
        <ele>112.61</ele>
        <time>2016-10-27T07:31:09Z</time>
      </trkpt>
      <trkpt lat="48.59063" lon="1.97043">
        <ele>112.13</ele>
        <time>2016-10-27T07:31:19Z</time>
      </trkpt>
      <trkpt lat="48.5906" lon="1.97052">
        <ele>112.13</ele>
        <time>2016-10-27T07:31:24Z</time>
      </trkpt>
      <trkpt lat="48.5905" lon="1.97097">
        <ele>111.17</ele>
        <time>2016-10-27T07:31:41Z</time>
      </trkpt>
      <trkpt lat="48.59044" lon="1.97132">
        <ele>111.65</ele>
        <time>2016-10-27T07:31:56Z</time>
      </trkpt>
      <trkpt lat="48.59037" lon="1.97166">
        <ele>111.17</ele>
        <time>2016-10-27T07:32:12Z</time>
      </trkpt>
      <trkpt lat="48.59036" lon="1.97172">
        <ele>110.69</ele>
        <time>2016-10-27T07:32:15Z</time>
      </trkpt>
      <trkpt lat="48.59029" lon="1.9721">
        <ele>110.69</ele>
        <time>2016-10-27T07:32:33Z</time>
      </trkpt>
      <trkpt lat="48.59025" lon="1.97245">
        <ele>110.69</ele>
        <time>2016-10-27T07:32:50Z</time>
      </trkpt>
      <trkpt lat="48.59024" lon="1.97255">
        <ele>111.17</ele>
        <time>2016-10-27T07:32:55Z</time>
      </trkpt>
      <trkpt lat="48.5904" lon="1.97269">
        <ele>112.13</ele>
        <time>2016-10-27T07:33:07Z</time>
      </trkpt>
      <trkpt lat="48.59045" lon="1.97272">
        <ele>111.17</ele>
        <time>2016-10-27T07:33:10Z</time>
      </trkpt>
      <trkpt lat="48.59073" lon="1.97289">
        <ele>111.65</ele>
        <time>2016-10-27T07:33:30Z</time>
      </trkpt>
      <trkpt lat="48.59102" lon="1.97314">
        <ele>114.05</ele>
        <time>2016-10-27T07:33:50Z</time>
      </trkpt>
      <trkpt lat="48.5912" lon="1.97291">
        <ele>113.57</ele>
        <time>2016-10-27T07:34:09Z</time>
      </trkpt>
      <trkpt lat="48.59122" lon="1.97285">
        <ele>113.09</ele>
        <time>2016-10-27T07:34:13Z</time>
      </trkpt>
      <trkpt lat="48.59124" lon="1.97281">
        <ele>115.5</ele>
        <time>2016-10-27T07:34:16Z</time>
      </trkpt>
      <trkpt lat="48.59136" lon="1.97256">
        <ele>114.05</ele>
        <time>2016-10-27T07:34:33Z</time>
      </trkpt>
      <trkpt lat="48.59153" lon="1.9722">
        <ele>114.05</ele>
        <time>2016-10-27T07:34:52Z</time>
      </trkpt>
      <trkpt lat="48.59174" lon="1.97165">
        <ele>115.98</ele>
        <time>2016-10-27T07:35:14Z</time>
      </trkpt>
      <trkpt lat="48.59175" lon="1.97163">
        <ele>115.98</ele>
        <time>2016-10-27T07:35:15Z</time>
      </trkpt>
      <trkpt lat="48.59182" lon="1.97152">
        <ele>117.42</ele>
        <time>2016-10-27T07:35:24Z</time>
      </trkpt>
      <trkpt lat="48.59189" lon="1.97137">
        <ele>118.38</ele>
        <time>2016-10-27T07:35:34Z</time>
      </trkpt>
      <trkpt lat="48.59196" lon="1.97123">
        <ele>117.9</ele>
        <time>2016-10-27T07:35:42Z</time>
      </trkpt>
      <trkpt lat="48.59197" lon="1.9712">
        <ele>118.38</ele>
        <time>2016-10-27T07:35:44Z</time>
      </trkpt>
      <trkpt lat="48.59215" lon="1.97083">
        <ele>118.86</ele>
        <time>2016-10-27T07:36:00Z</time>
      </trkpt>
      <trkpt lat="48.59232" lon="1.9706">
        <ele>119.34</ele>
        <time>2016-10-27T07:36:20Z</time>
      </trkpt>
      <trkpt lat="48.59243" lon="1.97027">
        <ele>119.34</ele>
        <time>2016-10-27T07:36:37Z</time>
      </trkpt>
      <trkpt lat="48.59247" lon="1.97019">
        <ele>118.86</ele>
        <time>2016-10-27T07:36:42Z</time>
      </trkpt>
      <trkpt lat="48.59268" lon="1.96989">
        <ele>121.26</ele>
        <time>2016-10-27T07:36:58Z</time>
      </trkpt>
      <trkpt lat="48.59269" lon="1.96988">
        <ele>121.26</ele>
        <time>2016-10-27T07:36:59Z</time>
      </trkpt>
      <trkpt lat="48.59272" lon="1.96983">
        <ele>121.26</ele>
        <time>2016-10-27T07:37:02Z</time>
      </trkpt>
      <trkpt lat="48.59279" lon="1.96958">
        <ele>123.19</ele>
        <time>2016-10-27T07:37:14Z</time>
      </trkpt>
      <trkpt lat="48.59285" lon="1.96943">
        <ele>125.11</ele>
        <time>2016-10-27T07:37:19Z</time>
      </trkpt>
      <trkpt lat="48.59291" lon="1.96933">
        <ele>126.07</ele>
        <time>2016-10-27T07:37:26Z</time>
      </trkpt>
      <trkpt lat="48.59299" lon="1.96902">
        <ele>108.29</ele>
        <time>2016-10-27T07:37:44Z</time>
      </trkpt>
      <trkpt lat="48.593" lon="1.96901">
        <ele>137.13</ele>
        <time>2016-10-27T07:37:45Z</time>
      </trkpt>
      <trkpt lat="48.593" lon="1.96901">
        <ele>134.24</ele>
        <time>2016-10-27T07:37:46Z</time>
      </trkpt>
      <trkpt lat="48.593" lon="1.969">
        <ele>127.03</ele>
        <time>2016-10-27T07:37:47Z</time>
      </trkpt>
      <trkpt lat="48.59301" lon="1.96899">
        <ele>127.03</ele>
        <time>2016-10-27T07:37:48Z</time>
      </trkpt>
      <trkpt lat="48.59307" lon="1.96889">
        <ele>129.43</ele>
        <time>2016-10-27T07:37:55Z</time>
      </trkpt>
      <trkpt lat="48.59313" lon="1.96879">
        <ele>131.36</ele>
        <time>2016-10-27T07:38:03Z</time>
      </trkpt>
      <trkpt lat="48.59316" lon="1.96869">
        <ele>132.8</ele>
        <time>2016-10-27T07:38:12Z</time>
      </trkpt>
      <trkpt lat="48.59323" lon="1.96855">
        <ele>135.2</ele>
        <time>2016-10-27T07:38:21Z</time>
      </trkpt>
      <trkpt lat="48.59332" lon="1.96838">
        <ele>135.68</ele>
        <time>2016-10-27T07:38:31Z</time>
      </trkpt>
      <trkpt lat="48.59338" lon="1.96826">
        <ele>136.16</ele>
        <time>2016-10-27T07:38:38Z</time>
      </trkpt>
      <trkpt lat="48.5934" lon="1.96817">
        <ele>137.61</ele>
        <time>2016-10-27T07:38:42Z</time>
      </trkpt>
      <trkpt lat="48.59345" lon="1.96788">
        <ele>138.57</ele>
        <time>2016-10-27T07:38:55Z</time>
      </trkpt>
      <trkpt lat="48.59347" lon="1.96782">
        <ele>138.57</ele>
        <time>2016-10-27T07:38:58Z</time>
      </trkpt>
      <trkpt lat="48.59356" lon="1.9676">
        <ele>138.57</ele>
        <time>2016-10-27T07:39:11Z</time>
      </trkpt>
      <trkpt lat="48.59362" lon="1.96749">
        <ele>138.57</ele>
        <time>2016-10-27T07:39:17Z</time>
      </trkpt>
      <trkpt lat="48.59367" lon="1.9674">
        <ele>138.57</ele>
        <time>2016-10-27T07:39:21Z</time>
      </trkpt>
      <trkpt lat="48.59387" lon="1.96718">
        <ele>137.61</ele>
        <time>2016-10-27T07:39:36Z</time>
      </trkpt>
      <trkpt lat="48.59398" lon="1.96699">
        <ele>137.13</ele>
        <time>2016-10-27T07:39:48Z</time>
      </trkpt>
      <trkpt lat="48.594" lon="1.96693">
        <ele>136.64</ele>
        <time>2016-10-27T07:40:02Z</time>
      </trkpt>
      <trkpt lat="48.59401" lon="1.96692">
        <ele>136.64</ele>
        <time>2016-10-27T07:40:15Z</time>
      </trkpt>
      <trkpt lat="48.59402" lon="1.96691">
        <ele>136.64</ele>
        <time>2016-10-27T07:40:34Z</time>
      </trkpt>
      <trkpt lat="48.59402" lon="1.9669">
        <ele>135.68</ele>
        <time>2016-10-27T07:40:55Z</time>
      </trkpt>
      <trkpt lat="48.59402" lon="1.96691">
        <ele>136.64</ele>
        <time>2016-10-27T07:41:03Z</time>
      </trkpt>
      <trkpt lat="48.59402" lon="1.9669">
        <ele>136.64</ele>
        <time>2016-10-27T07:41:26Z</time>
      </trkpt>
      <trkpt lat="48.59403" lon="1.96689">
        <ele>136.64</ele>
        <time>2016-10-27T07:41:35Z</time>
      </trkpt>
      <trkpt lat="48.59407" lon="1.96697">
        <ele>137.61</ele>
        <time>2016-10-27T07:41:41Z</time>
      </trkpt>
      <trkpt lat="48.59414" lon="1.96708">
        <ele>137.61</ele>
        <time>2016-10-27T07:41:49Z</time>
      </trkpt>
      <trkpt lat="48.59416" lon="1.96732">
        <ele>139.53</ele>
        <time>2016-10-27T07:42:01Z</time>
      </trkpt>
      <trkpt lat="48.59416" lon="1.96741">
        <ele>140.01</ele>
        <time>2016-10-27T07:42:05Z</time>
      </trkpt>
      <trkpt lat="48.59418" lon="1.96757">
        <ele>140.97</ele>
        <time>2016-10-27T07:42:12Z</time>
      </trkpt>
      <trkpt lat="48.59431" lon="1.96788">
        <ele>143.37</ele>
        <time>2016-10-27T07:42:28Z</time>
      </trkpt>
      <trkpt lat="48.5944" lon="1.96814">
        <ele>144.82</ele>
        <time>2016-10-27T07:42:42Z</time>
      </trkpt>
      <trkpt lat="48.59442" lon="1.96838">
        <ele>148.18</ele>
        <time>2016-10-27T07:42:54Z</time>
      </trkpt>
      <trkpt lat="48.59441" lon="1.96848">
        <ele>147.7</ele>
        <time>2016-10-27T07:42:58Z</time>
      </trkpt>
      <trkpt lat="48.59433" lon="1.96858">
        <ele>149.62</ele>
        <time>2016-10-27T07:43:05Z</time>
      </trkpt>
      <trkpt lat="48.59425" lon="1.96858">
        <ele>150.58</ele>
        <time>2016-10-27T07:43:11Z</time>
      </trkpt>
      <trkpt lat="48.59421" lon="1.96859">
        <ele>151.06</ele>
        <time>2016-10-27T07:43:15Z</time>
      </trkpt>
      <trkpt lat="48.59409" lon="1.96876">
        <ele>153.47</ele>
        <time>2016-10-27T07:43:28Z</time>
      </trkpt>
      <trkpt lat="48.59406" lon="1.96879">
        <ele>152.99</ele>
        <time>2016-10-27T07:43:42Z</time>
      </trkpt>
      <trkpt lat="48.59406" lon="1.96879">
        <ele>152.99</ele>
        <time>2016-10-27T07:44:02Z</time>
      </trkpt>
      <trkpt lat="48.59405" lon="1.96887">
        <ele>152.99</ele>
        <time>2016-10-27T07:44:19Z</time>
      </trkpt>
      <trkpt lat="48.59407" lon="1.96901">
        <ele>152.99</ele>
        <time>2016-10-27T07:44:25Z</time>
      </trkpt>
      <trkpt lat="48.59408" lon="1.96913">
        <ele>152.99</ele>
        <time>2016-10-27T07:44:31Z</time>
      </trkpt>
      <trkpt lat="48.59409" lon="1.96919">
        <ele>152.99</ele>
        <time>2016-10-27T07:44:34Z</time>
      </trkpt>
      <trkpt lat="48.59409" lon="1.96927">
        <ele>152.99</ele>
        <time>2016-10-27T07:44:38Z</time>
      </trkpt>
      <trkpt lat="48.59418" lon="1.96958">
        <ele>152.51</ele>
        <time>2016-10-27T07:44:53Z</time>
      </trkpt>
      <trkpt lat="48.59419" lon="1.9696">
        <ele>152.51</ele>
        <time>2016-10-27T07:44:54Z</time>
      </trkpt>
      <trkpt lat="48.59425" lon="1.96969">
        <ele>152.51</ele>
        <time>2016-10-27T07:45:00Z</time>
      </trkpt>
      <trkpt lat="48.59424" lon="1.96984">
        <ele>152.51</ele>
        <time>2016-10-27T07:45:07Z</time>
      </trkpt>
      <trkpt lat="48.59424" lon="1.96987">
        <ele>152.03</ele>
        <time>2016-10-27T07:45:11Z</time>
      </trkpt>
      <trkpt lat="48.59423" lon="1.96991">
        <ele>153.47</ele>
        <time>2016-10-27T07:45:14Z</time>
      </trkpt>
      <trkpt lat="48.59421" lon="1.97004">
        <ele>152.99</ele>
        <time>2016-10-27T07:45:20Z</time>
      </trkpt>
      <trkpt lat="48.59422" lon="1.97024">
        <ele>153.47</ele>
        <time>2016-10-27T07:45:27Z</time>
      </trkpt>
      <trkpt lat="48.59426" lon="1.97048">
        <ele>153.47</ele>
        <time>2016-10-27T07:45:37Z</time>
      </trkpt>
      <trkpt lat="48.59427" lon="1.97053">
        <ele>153.47</ele>
        <time>2016-10-27T07:45:39Z</time>
      </trkpt>
      <trkpt lat="48.59428" lon="1.97061">
        <ele>153.47</ele>
        <time>2016-10-27T07:45:43Z</time>
      </trkpt>
      <trkpt lat="48.59431" lon="1.97075">
        <ele>153.95</ele>
        <time>2016-10-27T07:45:49Z</time>
      </trkpt>
      <trkpt lat="48.59435" lon="1.97088">
        <ele>153.95</ele>
        <time>2016-10-27T07:45:56Z</time>
      </trkpt>
      <trkpt lat="48.59434" lon="1.97096">
        <ele>153.47</ele>
        <time>2016-10-27T07:46:00Z</time>
      </trkpt>
      <trkpt lat="48.59435" lon="1.97102">
        <ele>153.47</ele>
        <time>2016-10-27T07:46:02Z</time>
      </trkpt>
      <trkpt lat="48.59435" lon="1.97116">
        <ele>153.95</ele>
        <time>2016-10-27T07:46:07Z</time>
      </trkpt>
      <trkpt lat="48.59434" lon="1.97135">
        <ele>153.95</ele>
        <time>2016-10-27T07:46:16Z</time>
      </trkpt>
      <trkpt lat="48.59436" lon="1.97151">
        <ele>153.95</ele>
        <time>2016-10-27T07:46:22Z</time>
      </trkpt>
      <trkpt lat="48.59441" lon="1.97169">
        <ele>153.95</ele>
        <time>2016-10-27T07:46:30Z</time>
      </trkpt>
      <trkpt lat="48.59442" lon="1.97182">
        <ele>153.47</ele>
        <time>2016-10-27T07:46:36Z</time>
      </trkpt>
      <trkpt lat="48.59432" lon="1.97207">
        <ele>153.95</ele>
        <time>2016-10-27T07:46:49Z</time>
      </trkpt>
      <trkpt lat="48.59425" lon="1.97232">
        <ele>152.51</ele>
        <time>2016-10-27T07:47:02Z</time>
      </trkpt>
      <trkpt lat="48.59424" lon="1.97233">
        <ele>152.03</ele>
        <time>2016-10-27T07:47:03Z</time>
      </trkpt>
      <trkpt lat="48.59424" lon="1.97242">
        <ele>151.54</ele>
        <time>2016-10-27T07:47:07Z</time>
      </trkpt>
      <trkpt lat="48.59434" lon="1.97257">
        <ele>149.62</ele>
        <time>2016-10-27T07:47:22Z</time>
      </trkpt>
      <trkpt lat="48.59436" lon="1.9726">
        <ele>150.1</ele>
        <time>2016-10-27T07:47:24Z</time>
      </trkpt>
      <trkpt lat="48.59445" lon="1.97272">
        <ele>148.66</ele>
        <time>2016-10-27T07:47:36Z</time>
      </trkpt>
      <trkpt lat="48.59454" lon="1.97289">
        <ele>146.26</ele>
        <time>2016-10-27T07:47:50Z</time>
      </trkpt>
      <trkpt lat="48.59459" lon="1.97302">
        <ele>143.37</ele>
        <time>2016-10-27T07:48:02Z</time>
      </trkpt>
      <trkpt lat="48.59459" lon="1.97315">
        <ele>140.01</ele>
        <time>2016-10-27T07:48:12Z</time>
      </trkpt>
      <trkpt lat="48.59459" lon="1.97323">
        <ele>138.57</ele>
        <time>2016-10-27T07:48:17Z</time>
      </trkpt>
      <trkpt lat="48.5946" lon="1.97334">
        <ele>136.64</ele>
        <time>2016-10-27T07:48:23Z</time>
      </trkpt>
      <trkpt lat="48.59465" lon="1.97349">
        <ele>136.16</ele>
        <time>2016-10-27T07:48:30Z</time>
      </trkpt>
      <trkpt lat="48.59467" lon="1.97357">
        <ele>136.16</ele>
        <time>2016-10-27T07:48:34Z</time>
      </trkpt>
      <trkpt lat="48.59471" lon="1.97372">
        <ele>134.24</ele>
        <time>2016-10-27T07:48:42Z</time>
      </trkpt>
      <trkpt lat="48.59473" lon="1.97377">
        <ele>133.76</ele>
        <time>2016-10-27T07:48:45Z</time>
      </trkpt>
      <trkpt lat="48.59473" lon="1.97388">
        <ele>133.28</ele>
        <time>2016-10-27T07:48:50Z</time>
      </trkpt>
      <trkpt lat="48.5948" lon="1.97413">
        <ele>133.28</ele>
        <time>2016-10-27T07:49:04Z</time>
      </trkpt>
      <trkpt lat="48.59481" lon="1.97422">
        <ele>133.28</ele>
        <time>2016-10-27T07:49:15Z</time>
      </trkpt>
      <trkpt lat="48.59481" lon="1.97423">
        <ele>133.28</ele>
        <time>2016-10-27T07:49:39Z</time>
      </trkpt>
      <trkpt lat="48.59485" lon="1.97428">
        <ele>132.8</ele>
        <time>2016-10-27T07:49:50Z</time>
      </trkpt>
      <trkpt lat="48.59503" lon="1.97441">
        <ele>132.8</ele>
        <time>2016-10-27T07:50:06Z</time>
      </trkpt>
      <trkpt lat="48.59512" lon="1.97445">
        <ele>132.32</ele>
        <time>2016-10-27T07:50:12Z</time>
      </trkpt>
      <trkpt lat="48.59538" lon="1.97459">
        <ele>129.92</ele>
        <time>2016-10-27T07:50:28Z</time>
      </trkpt>
      <trkpt lat="48.5956" lon="1.97476">
        <ele>127.03</ele>
        <time>2016-10-27T07:50:44Z</time>
      </trkpt>
      <trkpt lat="48.59576" lon="1.97486">
        <ele>125.59</ele>
        <time>2016-10-27T07:50:57Z</time>
      </trkpt>
      <trkpt lat="48.59591" lon="1.97497">
        <ele>125.11</ele>
        <time>2016-10-27T07:51:07Z</time>
      </trkpt>
      <trkpt lat="48.59594" lon="1.975">
        <ele>125.11</ele>
        <time>2016-10-27T07:51:10Z</time>
      </trkpt>
      <trkpt lat="48.59607" lon="1.97507">
        <ele>124.63</ele>
        <time>2016-10-27T07:51:19Z</time>
      </trkpt>
      <trkpt lat="48.59615" lon="1.97516">
        <ele>123.67</ele>
        <time>2016-10-27T07:51:28Z</time>
      </trkpt>
      <trkpt lat="48.59628" lon="1.97524">
        <ele>123.19</ele>
        <time>2016-10-27T07:51:41Z</time>
      </trkpt>
      <trkpt lat="48.59646" lon="1.97534">
        <ele>123.19</ele>
        <time>2016-10-27T07:51:56Z</time>
      </trkpt>
      <trkpt lat="48.59662" lon="1.97543">
        <ele>122.22</ele>
        <time>2016-10-27T07:52:07Z</time>
      </trkpt>
      <trkpt lat="48.59682" lon="1.97562">
        <ele>118.86</ele>
        <time>2016-10-27T07:52:21Z</time>
      </trkpt>
      <trkpt lat="48.59713" lon="1.97577">
        <ele>117.42</ele>
        <time>2016-10-27T07:52:38Z</time>
      </trkpt>
      <trkpt lat="48.59717" lon="1.97581">
        <ele>117.42</ele>
        <time>2016-10-27T07:52:41Z</time>
      </trkpt>
      <trkpt lat="48.59734" lon="1.97593">
        <ele>116.46</ele>
        <time>2016-10-27T07:52:57Z</time>
      </trkpt>
      <trkpt lat="48.59752" lon="1.97608">
        <ele>116.94</ele>
        <time>2016-10-27T07:53:12Z</time>
      </trkpt>
      <trkpt lat="48.59762" lon="1.97616">
        <ele>116.46</ele>
        <time>2016-10-27T07:53:17Z</time>
      </trkpt>
      <trkpt lat="48.59769" lon="1.97622">
        <ele>117.42</ele>
        <time>2016-10-27T07:53:20Z</time>
      </trkpt>
      <trkpt lat="48.5979" lon="1.97632">
        <ele>115.01</ele>
        <time>2016-10-27T07:53:35Z</time>
      </trkpt>
      <trkpt lat="48.598" lon="1.97641">
        <ele>114.53</ele>
        <time>2016-10-27T07:53:41Z</time>
      </trkpt>
      <trkpt lat="48.59825" lon="1.97655">
        <ele>112.61</ele>
        <time>2016-10-27T07:53:58Z</time>
      </trkpt>
      <trkpt lat="48.59847" lon="1.97667">
        <ele>111.17</ele>
        <time>2016-10-27T07:54:15Z</time>
      </trkpt>
      <trkpt lat="48.59849" lon="1.97671">
        <ele>110.69</ele>
        <time>2016-10-27T07:54:18Z</time>
      </trkpt>
      <trkpt lat="48.59856" lon="1.97681">
        <ele>110.69</ele>
        <time>2016-10-27T07:54:28Z</time>
      </trkpt>
      <trkpt lat="48.59878" lon="1.97691">
        <ele>110.69</ele>
        <time>2016-10-27T07:54:38Z</time>
      </trkpt>
      <trkpt lat="48.59897" lon="1.97699">
        <ele>111.17</ele>
        <time>2016-10-27T07:54:48Z</time>
      </trkpt>
      <trkpt lat="48.5992" lon="1.97711">
        <ele>112.61</ele>
        <time>2016-10-27T07:55:07Z</time>
      </trkpt>
      <trkpt lat="48.59943" lon="1.97729">
        <ele>113.09</ele>
        <time>2016-10-27T07:55:27Z</time>
      </trkpt>
      <trkpt lat="48.59957" lon="1.97745">
        <ele>112.61</ele>
        <time>2016-10-27T07:55:43Z</time>
      </trkpt>
      <trkpt lat="48.5996" lon="1.97745">
        <ele>113.09</ele>
        <time>2016-10-27T07:56:01Z</time>
      </trkpt>
      <trkpt lat="48.59959" lon="1.97746">
        <ele>113.09</ele>
        <time>2016-10-27T07:56:18Z</time>
      </trkpt>
      <trkpt lat="48.59959" lon="1.97746">
        <ele>112.61</ele>
        <time>2016-10-27T07:56:43Z</time>
      </trkpt>
      <trkpt lat="48.5996" lon="1.97744">
        <ele>113.57</ele>
        <time>2016-10-27T07:57:09Z</time>
      </trkpt>
      <trkpt lat="48.59958" lon="1.97745">
        <ele>112.61</ele>
        <time>2016-10-27T07:57:33Z</time>
      </trkpt>
      <trkpt lat="48.59958" lon="1.97744">
        <ele>112.61</ele>
        <time>2016-10-27T07:57:58Z</time>
      </trkpt>
      <trkpt lat="48.59957" lon="1.97745">
        <ele>112.61</ele>
        <time>2016-10-27T07:58:22Z</time>
      </trkpt>
      <trkpt lat="48.59954" lon="1.97757">
        <ele>113.09</ele>
        <time>2016-10-27T07:58:40Z</time>
      </trkpt>
      <trkpt lat="48.59937" lon="1.97799">
        <ele>114.05</ele>
        <time>2016-10-27T07:59:00Z</time>
      </trkpt>
      <trkpt lat="48.59936" lon="1.97802">
        <ele>115.01</ele>
        <time>2016-10-27T07:59:02Z</time>
      </trkpt>
      <trkpt lat="48.59927" lon="1.97836">
        <ele>116.46</ele>
        <time>2016-10-27T07:59:19Z</time>
      </trkpt>
      <trkpt lat="48.59923" lon="1.97845">
        <ele>117.42</ele>
        <time>2016-10-27T07:59:24Z</time>
      </trkpt>
      <trkpt lat="48.59913" lon="1.97872">
        <ele>119.82</ele>
        <time>2016-10-27T07:59:36Z</time>
      </trkpt>
      <trkpt lat="48.59905" lon="1.97891">
        <ele>123.67</ele>
        <time>2016-10-27T07:59:47Z</time>
      </trkpt>
      <trkpt lat="48.59895" lon="1.97915">
        <ele>127.51</ele>
        <time>2016-10-27T08:00:03Z</time>
      </trkpt>
      <trkpt lat="48.59894" lon="1.97917">
        <ele>127.03</ele>
        <time>2016-10-27T08:00:04Z</time>
      </trkpt>
      <trkpt lat="48.59887" lon="1.97934">
        <ele>130.88</ele>
        <time>2016-10-27T08:00:15Z</time>
      </trkpt>
      <trkpt lat="48.59886" lon="1.97935">
        <ele>130.4</ele>
        <time>2016-10-27T08:00:16Z</time>
      </trkpt>
      <trkpt lat="48.59879" lon="1.97956">
        <ele>133.76</ele>
        <time>2016-10-27T08:00:28Z</time>
      </trkpt>
      <trkpt lat="48.59875" lon="1.97965">
        <ele>134.72</ele>
        <time>2016-10-27T08:00:34Z</time>
      </trkpt>
      <trkpt lat="48.59865" lon="1.97992">
        <ele>136.64</ele>
        <time>2016-10-27T08:00:52Z</time>
      </trkpt>
      <trkpt lat="48.59863" lon="1.9799">
        <ele>136.64</ele>
        <time>2016-10-27T08:01:08Z</time>
      </trkpt>
      <trkpt lat="48.59863" lon="1.97989">
        <ele>136.64</ele>
        <time>2016-10-27T08:01:26Z</time>
      </trkpt>
      <trkpt lat="48.59864" lon="1.97987">
        <ele>137.13</ele>
        <time>2016-10-27T08:01:51Z</time>
      </trkpt>
      <trkpt lat="48.59854" lon="1.9798">
        <ele>135.68</ele>
        <time>2016-10-27T08:02:09Z</time>
      </trkpt>
      <trkpt lat="48.59848" lon="1.97976">
        <ele>135.2</ele>
        <time>2016-10-27T08:02:29Z</time>
      </trkpt>
      <trkpt lat="48.59853" lon="1.97988">
        <ele>135.68</ele>
        <time>2016-10-27T08:02:49Z</time>
      </trkpt>
      <trkpt lat="48.59839" lon="1.97967">
        <ele>132.32</ele>
        <time>2016-10-27T08:03:06Z</time>
      </trkpt>
      <trkpt lat="48.5983" lon="1.97953">
        <ele>129.43</ele>
        <time>2016-10-27T08:03:20Z</time>
      </trkpt>
      <trkpt lat="48.59826" lon="1.97947">
        <ele>128.47</ele>
        <time>2016-10-27T08:03:24Z</time>
      </trkpt>
      <trkpt lat="48.59808" lon="1.97922">
        <ele>125.11</ele>
        <time>2016-10-27T08:03:42Z</time>
      </trkpt>
      <trkpt lat="48.59794" lon="1.97914">
        <ele>122.22</ele>
        <time>2016-10-27T08:03:56Z</time>
      </trkpt>
      <trkpt lat="48.59773" lon="1.97897">
        <ele>121.26</ele>
        <time>2016-10-27T08:04:13Z</time>
      </trkpt>
      <trkpt lat="48.59769" lon="1.9789">
        <ele>123.19</ele>
        <time>2016-10-27T08:04:19Z</time>
      </trkpt>
      <trkpt lat="48.5975" lon="1.97876">
        <ele>122.71</ele>
        <time>2016-10-27T08:04:38Z</time>
      </trkpt>
      <trkpt lat="48.59725" lon="1.97854">
        <ele>121.74</ele>
        <time>2016-10-27T08:04:55Z</time>
      </trkpt>
      <trkpt lat="48.59697" lon="1.97833">
        <ele>122.71</ele>
        <time>2016-10-27T08:05:15Z</time>
      </trkpt>
      <trkpt lat="48.59688" lon="1.97811">
        <ele>122.22</ele>
        <time>2016-10-27T08:05:33Z</time>
      </trkpt>
      <trkpt lat="48.59669" lon="1.97785">
        <ele>123.19</ele>
        <time>2016-10-27T08:05:54Z</time>
      </trkpt>
      <trkpt lat="48.59668" lon="1.97783">
        <ele>124.15</ele>
        <time>2016-10-27T08:05:56Z</time>
      </trkpt>
      <trkpt lat="48.5966" lon="1.97779">
        <ele>126.55</ele>
        <time>2016-10-27T08:06:06Z</time>
      </trkpt>
      <trkpt lat="48.59651" lon="1.97769">
        <ele>127.03</ele>
        <time>2016-10-27T08:06:13Z</time>
      </trkpt>
      <trkpt lat="48.59642" lon="1.97755">
        <ele>130.88</ele>
        <time>2016-10-27T08:06:26Z</time>
      </trkpt>
      <trkpt lat="48.5964" lon="1.97754">
        <ele>130.4</ele>
        <time>2016-10-27T08:06:27Z</time>
      </trkpt>
      <trkpt lat="48.59609" lon="1.97742">
        <ele>133.76</ele>
        <time>2016-10-27T08:06:48Z</time>
      </trkpt>
      <trkpt lat="48.59593" lon="1.97728">
        <ele>134.24</ele>
        <time>2016-10-27T08:07:04Z</time>
      </trkpt>
      <trkpt lat="48.59576" lon="1.97719">
        <ele>136.16</ele>
        <time>2016-10-27T08:07:17Z</time>
      </trkpt>
      <trkpt lat="48.59547" lon="1.97703">
        <ele>137.61</ele>
        <time>2016-10-27T08:07:39Z</time>
      </trkpt>
      <trkpt lat="48.59521" lon="1.9769">
        <ele>139.53</ele>
        <time>2016-10-27T08:08:01Z</time>
      </trkpt>
      <trkpt lat="48.59496" lon="1.97679">
        <ele>140.01</ele>
        <time>2016-10-27T08:08:19Z</time>
      </trkpt>
      <trkpt lat="48.59476" lon="1.97674">
        <ele>139.53</ele>
        <time>2016-10-27T08:08:35Z</time>
      </trkpt>
      <trkpt lat="48.59451" lon="1.9765">
        <ele>140.97</ele>
        <time>2016-10-27T08:08:53Z</time>
      </trkpt>
      <trkpt lat="48.59447" lon="1.97643">
        <ele>141.45</ele>
        <time>2016-10-27T08:08:57Z</time>
      </trkpt>
      <trkpt lat="48.59431" lon="1.97646">
        <ele>141.45</ele>
        <time>2016-10-27T08:09:14Z</time>
      </trkpt>
      <trkpt lat="48.5943" lon="1.9765">
        <ele>142.89</ele>
        <time>2016-10-27T08:09:16Z</time>
      </trkpt>
      <trkpt lat="48.5943" lon="1.97657">
        <ele>142.41</ele>
        <time>2016-10-27T08:09:19Z</time>
      </trkpt>
      <trkpt lat="48.5943" lon="1.97677">
        <ele>145.78</ele>
        <time>2016-10-27T08:09:28Z</time>
      </trkpt>
      <trkpt lat="48.59433" lon="1.97707">
        <ele>147.7</ele>
        <time>2016-10-27T08:09:43Z</time>
      </trkpt>
      <trkpt lat="48.59438" lon="1.9774">
        <ele>149.14</ele>
        <time>2016-10-27T08:10:01Z</time>
      </trkpt>
      <trkpt lat="48.59433" lon="1.97745">
        <ele>150.58</ele>
        <time>2016-10-27T08:10:06Z</time>
      </trkpt>
      <trkpt lat="48.59427" lon="1.97746">
        <ele>150.58</ele>
        <time>2016-10-27T08:10:13Z</time>
      </trkpt>
      <trkpt lat="48.594" lon="1.97728">
        <ele>150.58</ele>
        <time>2016-10-27T08:10:32Z</time>
      </trkpt>
      <trkpt lat="48.59376" lon="1.97712">
        <ele>150.1</ele>
        <time>2016-10-27T08:10:50Z</time>
      </trkpt>
      <trkpt lat="48.59354" lon="1.9771">
        <ele>150.1</ele>
        <time>2016-10-27T08:11:07Z</time>
      </trkpt>
      <trkpt lat="48.59353" lon="1.97714">
        <ele>149.62</ele>
        <time>2016-10-27T08:11:09Z</time>
      </trkpt>
      <trkpt lat="48.59339" lon="1.97748">
        <ele>149.62</ele>
        <time>2016-10-27T08:11:27Z</time>
      </trkpt>
      <trkpt lat="48.59334" lon="1.97769">
        <ele>149.62</ele>
        <time>2016-10-27T08:11:36Z</time>
      </trkpt>
      <trkpt lat="48.59335" lon="1.97789">
        <ele>149.14</ele>
        <time>2016-10-27T08:11:47Z</time>
      </trkpt>
      <trkpt lat="48.59345" lon="1.97827">
        <ele>149.14</ele>
        <time>2016-10-27T08:12:04Z</time>
      </trkpt>
      <trkpt lat="48.59354" lon="1.97851">
        <ele>148.66</ele>
        <time>2016-10-27T08:12:16Z</time>
      </trkpt>
      <trkpt lat="48.59355" lon="1.97854">
        <ele>148.66</ele>
        <time>2016-10-27T08:12:17Z</time>
      </trkpt>
      <trkpt lat="48.59366" lon="1.97889">
        <ele>149.14</ele>
        <time>2016-10-27T08:12:33Z</time>
      </trkpt>
      <trkpt lat="48.59369" lon="1.97917">
        <ele>149.14</ele>
        <time>2016-10-27T08:12:46Z</time>
      </trkpt>
      <trkpt lat="48.59367" lon="1.9795">
        <ele>149.14</ele>
        <time>2016-10-27T08:13:01Z</time>
      </trkpt>
      <trkpt lat="48.59356" lon="1.9799">
        <ele>148.66</ele>
        <time>2016-10-27T08:13:20Z</time>
      </trkpt>
      <trkpt lat="48.59354" lon="1.98008">
        <ele>148.66</ele>
        <time>2016-10-27T08:13:29Z</time>
      </trkpt>
      <trkpt lat="48.59353" lon="1.98012">
        <ele>148.66</ele>
        <time>2016-10-27T08:13:31Z</time>
      </trkpt>
      <trkpt lat="48.59352" lon="1.98015">
        <ele>148.66</ele>
        <time>2016-10-27T08:13:33Z</time>
      </trkpt>
      <trkpt lat="48.59338" lon="1.98008">
        <ele>147.7</ele>
        <time>2016-10-27T08:13:49Z</time>
      </trkpt>
      <trkpt lat="48.59338" lon="1.98007">
        <ele>147.7</ele>
        <time>2016-10-27T08:14:04Z</time>
      </trkpt>
      <trkpt lat="48.59337" lon="1.98009">
        <ele>147.7</ele>
        <time>2016-10-27T08:14:29Z</time>
      </trkpt>
      <trkpt lat="48.59336" lon="1.98009">
        <ele>147.7</ele>
        <time>2016-10-27T08:14:49Z</time>
      </trkpt>
      <trkpt lat="48.59336" lon="1.98009">
        <ele>147.7</ele>
        <time>2016-10-27T08:15:07Z</time>
      </trkpt>
      <trkpt lat="48.59336" lon="1.98009">
        <ele>147.7</ele>
        <time>2016-10-27T08:15:24Z</time>
      </trkpt>
      <trkpt lat="48.5934" lon="1.98013">
        <ele>148.66</ele>
        <time>2016-10-27T08:15:34Z</time>
      </trkpt>
      <trkpt lat="48.59355" lon="1.98028">
        <ele>148.66</ele>
        <time>2016-10-27T08:15:48Z</time>
      </trkpt>
      <trkpt lat="48.59372" lon="1.98057">
        <ele>148.66</ele>
        <time>2016-10-27T08:16:06Z</time>
      </trkpt>
      <trkpt lat="48.59392" lon="1.98078">
        <ele>148.66</ele>
        <time>2016-10-27T08:16:23Z</time>
      </trkpt>
      <trkpt lat="48.59417" lon="1.98089">
        <ele>149.14</ele>
        <time>2016-10-27T08:16:42Z</time>
      </trkpt>
      <trkpt lat="48.59419" lon="1.98089">
        <ele>149.62</ele>
        <time>2016-10-27T08:16:43Z</time>
      </trkpt>
      <trkpt lat="48.5943" lon="1.98083">
        <ele>149.62</ele>
        <time>2016-10-27T08:16:50Z</time>
      </trkpt>
      <trkpt lat="48.59454" lon="1.98049">
        <ele>149.62</ele>
        <time>2016-10-27T08:17:13Z</time>
      </trkpt>
      <trkpt lat="48.5946" lon="1.98037">
        <ele>149.62</ele>
        <time>2016-10-27T08:17:20Z</time>
      </trkpt>
      <trkpt lat="48.59482" lon="1.9801">
        <ele>150.1</ele>
        <time>2016-10-27T08:17:38Z</time>
      </trkpt>
      <trkpt lat="48.59504" lon="1.9799">
        <ele>149.62</ele>
        <time>2016-10-27T08:17:57Z</time>
      </trkpt>
      <trkpt lat="48.5952" lon="1.9801">
        <ele>149.14</ele>
        <time>2016-10-27T08:18:15Z</time>
      </trkpt>
      <trkpt lat="48.5953" lon="1.98021">
        <ele>147.7</ele>
        <time>2016-10-27T08:18:33Z</time>
      </trkpt>
      <trkpt lat="48.59535" lon="1.98027">
        <ele>147.7</ele>
        <time>2016-10-27T08:18:40Z</time>
      </trkpt>
      <trkpt lat="48.59564" lon="1.98044">
        <ele>144.82</ele>
        <time>2016-10-27T08:18:59Z</time>
      </trkpt>
      <trkpt lat="48.59578" lon="1.98064">
        <ele>143.37</ele>
        <time>2016-10-27T08:19:13Z</time>
      </trkpt>
      <trkpt lat="48.596" lon="1.98092">
        <ele>142.41</ele>
        <time>2016-10-27T08:19:30Z</time>
      </trkpt>
      <trkpt lat="48.59625" lon="1.98121">
        <ele>141.93</ele>
        <time>2016-10-27T08:19:48Z</time>
      </trkpt>
      <trkpt lat="48.59645" lon="1.98148">
        <ele>140.97</ele>
        <time>2016-10-27T08:20:06Z</time>
      </trkpt>
      <trkpt lat="48.59664" lon="1.98173">
        <ele>139.05</ele>
        <time>2016-10-27T08:20:22Z</time>
      </trkpt>
      <trkpt lat="48.59674" lon="1.9818">
        <ele>138.09</ele>
        <time>2016-10-27T08:20:29Z</time>
      </trkpt>
      <trkpt lat="48.59681" lon="1.98184">
        <ele>138.09</ele>
        <time>2016-10-27T08:20:33Z</time>
      </trkpt>
      <trkpt lat="48.59705" lon="1.98199">
        <ele>135.68</ele>
        <time>2016-10-27T08:20:52Z</time>
      </trkpt>
      <trkpt lat="48.59729" lon="1.98208">
        <ele>132.32</ele>
        <time>2016-10-27T08:21:09Z</time>
      </trkpt>
      <trkpt lat="48.59749" lon="1.98217">
        <ele>130.88</ele>
        <time>2016-10-27T08:21:29Z</time>
      </trkpt>
      <trkpt lat="48.59758" lon="1.98221">
        <ele>129.92</ele>
        <time>2016-10-27T08:21:35Z</time>
      </trkpt>
      <trkpt lat="48.59775" lon="1.98245">
        <ele>126.55</ele>
        <time>2016-10-27T08:21:50Z</time>
      </trkpt>
      <trkpt lat="48.59802" lon="1.98251">
        <ele>123.67</ele>
        <time>2016-10-27T08:22:05Z</time>
      </trkpt>
      <trkpt lat="48.59825" lon="1.98256">
        <ele>120.3</ele>
        <time>2016-10-27T08:22:21Z</time>
      </trkpt>
      <trkpt lat="48.59843" lon="1.98269">
        <ele>117.9</ele>
        <time>2016-10-27T08:22:36Z</time>
      </trkpt>
      <trkpt lat="48.59865" lon="1.98275">
        <ele>115.98</ele>
        <time>2016-10-27T08:22:53Z</time>
      </trkpt>
      <trkpt lat="48.59885" lon="1.98294">
        <ele>114.53</ele>
        <time>2016-10-27T08:23:11Z</time>
      </trkpt>
      <trkpt lat="48.59886" lon="1.98313">
        <ele>113.57</ele>
        <time>2016-10-27T08:23:28Z</time>
      </trkpt>
      <trkpt lat="48.59886" lon="1.98315">
        <ele>114.05</ele>
        <time>2016-10-27T08:23:48Z</time>
      </trkpt>
      <trkpt lat="48.59885" lon="1.98316">
        <ele>114.05</ele>
        <time>2016-10-27T08:23:49Z</time>
      </trkpt>
      <trkpt lat="48.5987" lon="1.98346">
        <ele>114.05</ele>
        <time>2016-10-27T08:24:05Z</time>
      </trkpt>
      <trkpt lat="48.59855" lon="1.98379">
        <ele>113.57</ele>
        <time>2016-10-27T08:24:22Z</time>
      </trkpt>
      <trkpt lat="48.59849" lon="1.98394">
        <ele>113.09</ele>
        <time>2016-10-27T08:24:35Z</time>
      </trkpt>
      <trkpt lat="48.59848" lon="1.98397">
        <ele>114.05</ele>
        <time>2016-10-27T08:24:37Z</time>
      </trkpt>
      <trkpt lat="48.59849" lon="1.98401">
        <ele>113.09</ele>
        <time>2016-10-27T08:24:39Z</time>
      </trkpt>
      <trkpt lat="48.59844" lon="1.98426">
        <ele>115.5</ele>
        <time>2016-10-27T08:24:45Z</time>
      </trkpt>
      <trkpt lat="48.59849" lon="1.98461">
        <ele>115.98</ele>
        <time>2016-10-27T08:25:02Z</time>
      </trkpt>
      <trkpt lat="48.5985" lon="1.98465">
        <ele>115.5</ele>
        <time>2016-10-27T08:25:05Z</time>
      </trkpt>
      <trkpt lat="48.59851" lon="1.98483">
        <ele>117.9</ele>
        <time>2016-10-27T08:25:16Z</time>
      </trkpt>
      <trkpt lat="48.5984" lon="1.98497">
        <ele>118.38</ele>
        <time>2016-10-27T08:25:28Z</time>
      </trkpt>
      <trkpt lat="48.59832" lon="1.98507">
        <ele>121.74</ele>
        <time>2016-10-27T08:25:38Z</time>
      </trkpt>
      <trkpt lat="48.59823" lon="1.98511">
        <ele>124.63</ele>
        <time>2016-10-27T08:25:46Z</time>
      </trkpt>
      <trkpt lat="48.59822" lon="1.98511">
        <ele>124.63</ele>
        <time>2016-10-27T08:25:47Z</time>
      </trkpt>
      <trkpt lat="48.59808" lon="1.98512">
        <ele>128.47</ele>
        <time>2016-10-27T08:26:00Z</time>
      </trkpt>
      <trkpt lat="48.59807" lon="1.98513">
        <ele>128.95</ele>
        <time>2016-10-27T08:26:01Z</time>
      </trkpt>
      <trkpt lat="48.59792" lon="1.98522">
        <ele>131.84</ele>
        <time>2016-10-27T08:26:14Z</time>
      </trkpt>
      <trkpt lat="48.59781" lon="1.98522">
        <ele>133.28</ele>
        <time>2016-10-27T08:26:29Z</time>
      </trkpt>
      <trkpt lat="48.59768" lon="1.98536">
        <ele>133.28</ele>
        <time>2016-10-27T08:26:44Z</time>
      </trkpt>
      <trkpt lat="48.59767" lon="1.98537">
        <ele>133.28</ele>
        <time>2016-10-27T08:27:06Z</time>
      </trkpt>
      <trkpt lat="48.59768" lon="1.98535">
        <ele>133.28</ele>
        <time>2016-10-27T08:27:32Z</time>
      </trkpt>
      <trkpt lat="48.59769" lon="1.98534">
        <ele>133.28</ele>
        <time>2016-10-27T08:27:57Z</time>
      </trkpt>
      <trkpt lat="48.59761" lon="1.98533">
        <ele>133.76</ele>
        <time>2016-10-27T08:28:14Z</time>
      </trkpt>
      <trkpt lat="48.59742" lon="1.98539">
        <ele>134.24</ele>
        <time>2016-10-27T08:28:31Z</time>
      </trkpt>
      <trkpt lat="48.59709" lon="1.98561">
        <ele>133.28</ele>
        <time>2016-10-27T08:28:48Z</time>
      </trkpt>
      <trkpt lat="48.59699" lon="1.98598">
        <ele>130.4</ele>
        <time>2016-10-27T08:29:04Z</time>
      </trkpt>
      <trkpt lat="48.597" lon="1.98601">
        <ele>129.92</ele>
        <time>2016-10-27T08:29:06Z</time>
      </trkpt>
      <trkpt lat="48.59702" lon="1.98613">
        <ele>126.07</ele>
        <time>2016-10-27T08:29:15Z</time>
      </trkpt>
      <trkpt lat="48.597" lon="1.9863">
        <ele>123.19</ele>
        <time>2016-10-27T08:29:23Z</time>
      </trkpt>
      <trkpt lat="48.59698" lon="1.98644">
        <ele>119.82</ele>
        <time>2016-10-27T08:29:32Z</time>
      </trkpt>
      <trkpt lat="48.59697" lon="1.98645">
        <ele>119.34</ele>
        <time>2016-10-27T08:29:33Z</time>
      </trkpt>
      <trkpt lat="48.59689" lon="1.98664">
        <ele>116.46</ele>
        <time>2016-10-27T08:29:46Z</time>
      </trkpt>
      <trkpt lat="48.59684" lon="1.98675">
        <ele>113.57</ele>
        <time>2016-10-27T08:30:00Z</time>
      </trkpt>
      <trkpt lat="48.59674" lon="1.98687">
        <ele>113.09</ele>
        <time>2016-10-27T08:30:08Z</time>
      </trkpt>
      <trkpt lat="48.59653" lon="1.98698">
        <ele>113.09</ele>
        <time>2016-10-27T08:30:23Z</time>
      </trkpt>
      <trkpt lat="48.59638" lon="1.98688">
        <ele>113.57</ele>
        <time>2016-10-27T08:30:39Z</time>
      </trkpt>
      <trkpt lat="48.59637" lon="1.98687">
        <ele>114.53</ele>
        <time>2016-10-27T08:30:43Z</time>
      </trkpt>
      <trkpt lat="48.59632" lon="1.98682">
        <ele>114.05</ele>
        <time>2016-10-27T08:30:45Z</time>
      </trkpt>
      <trkpt lat="48.59626" lon="1.98671">
        <ele>115.01</ele>
        <time>2016-10-27T08:30:53Z</time>
      </trkpt>
      <trkpt lat="48.59619" lon="1.98663">
        <ele>115.98</ele>
        <time>2016-10-27T08:31:01Z</time>
      </trkpt>
      <trkpt lat="48.59624" lon="1.98677">
        <ele>114.53</ele>
        <time>2016-10-27T08:31:17Z</time>
      </trkpt>
      <trkpt lat="48.59626" lon="1.98699">
        <ele>113.09</ele>
        <time>2016-10-27T08:31:32Z</time>
      </trkpt>
      <trkpt lat="48.59609" lon="1.9873">
        <ele>111.65</ele>
        <time>2016-10-27T08:31:50Z</time>
      </trkpt>
      <trkpt lat="48.59592" lon="1.98752">
        <ele>111.65</ele>
        <time>2016-10-27T08:32:06Z</time>
      </trkpt>
      <trkpt lat="48.59591" lon="1.98753">
        <ele>111.65</ele>
        <time>2016-10-27T08:32:07Z</time>
      </trkpt>
      <trkpt lat="48.59568" lon="1.98772">
        <ele>113.57</ele>
        <time>2016-10-27T08:32:26Z</time>
      </trkpt>
      <trkpt lat="48.5955" lon="1.98793">
        <ele>112.61</ele>
        <time>2016-10-27T08:32:41Z</time>
      </trkpt>
      <trkpt lat="48.5955" lon="1.98798">
        <ele>113.57</ele>
        <time>2016-10-27T08:32:44Z</time>
      </trkpt>
      <trkpt lat="48.59553" lon="1.98803">
        <ele>112.61</ele>
        <time>2016-10-27T08:32:54Z</time>
      </trkpt>
      <trkpt lat="48.59574" lon="1.98795">
        <ele>112.61</ele>
        <time>2016-10-27T08:33:11Z</time>
      </trkpt>
      <trkpt lat="48.5958" lon="1.98794">
        <ele>112.61</ele>
        <time>2016-10-27T08:33:17Z</time>
      </trkpt>
      <trkpt lat="48.59613" lon="1.98787">
        <ele>111.65</ele>
        <time>2016-10-27T08:33:41Z</time>
      </trkpt>
      <trkpt lat="48.5963" lon="1.98786">
        <ele>109.73</ele>
        <time>2016-10-27T08:33:53Z</time>
      </trkpt>
      <trkpt lat="48.59655" lon="1.98782">
        <ele>108.29</ele>
        <time>2016-10-27T08:34:11Z</time>
      </trkpt>
      <trkpt lat="48.59677" lon="1.98782">
        <ele>107.81</ele>
        <time>2016-10-27T08:34:27Z</time>
      </trkpt>
      <trkpt lat="48.59709" lon="1.98785">
        <ele>105.88</ele>
        <time>2016-10-27T08:34:47Z</time>
      </trkpt>
      <trkpt lat="48.59732" lon="1.98781">
        <ele>104.44</ele>
        <time>2016-10-27T08:35:05Z</time>
      </trkpt>
      <trkpt lat="48.59755" lon="1.98785">
        <ele>103.96</ele>
        <time>2016-10-27T08:35:21Z</time>
      </trkpt>
      <trkpt lat="48.59782" lon="1.98786">
        <ele>103.48</ele>
        <time>2016-10-27T08:35:40Z</time>
      </trkpt>
      <trkpt lat="48.59808" lon="1.98791">
        <ele>102.04</ele>
        <time>2016-10-27T08:36:00Z</time>
      </trkpt>
      <trkpt lat="48.59824" lon="1.98787">
        <ele>101.56</ele>
        <time>2016-10-27T08:36:11Z</time>
      </trkpt>
      <trkpt lat="48.59854" lon="1.98784">
        <ele>100.6</ele>
        <time>2016-10-27T08:36:29Z</time>
      </trkpt>
      <trkpt lat="48.59878" lon="1.98779">
        <ele>99.15</ele>
        <time>2016-10-27T08:36:47Z</time>
      </trkpt>
      <trkpt lat="48.59902" lon="1.98773">
        <ele>98.67</ele>
        <time>2016-10-27T08:37:07Z</time>
      </trkpt>
      <trkpt lat="48.5993" lon="1.9877">
        <ele>98.19</ele>
        <time>2016-10-27T08:37:29Z</time>
      </trkpt>
      <trkpt lat="48.59961" lon="1.98759">
        <ele>97.23</ele>
        <time>2016-10-27T08:37:49Z</time>
      </trkpt>
      <trkpt lat="48.5998" lon="1.98748">
        <ele>96.75</ele>
        <time>2016-10-27T08:38:05Z</time>
      </trkpt>
      <trkpt lat="48.60007" lon="1.98744">
        <ele>96.27</ele>
        <time>2016-10-27T08:38:24Z</time>
      </trkpt>
      <trkpt lat="48.60032" lon="1.98744">
        <ele>96.27</ele>
        <time>2016-10-27T08:38:41Z</time>
      </trkpt>
      <trkpt lat="48.60052" lon="1.98729">
        <ele>96.75</ele>
        <time>2016-10-27T08:38:59Z</time>
      </trkpt>
      <trkpt lat="48.60071" lon="1.98718">
        <ele>97.71</ele>
        <time>2016-10-27T08:39:16Z</time>
      </trkpt>
      <trkpt lat="48.60091" lon="1.98701">
        <ele>98.67</ele>
        <time>2016-10-27T08:39:33Z</time>
      </trkpt>
      <trkpt lat="48.60113" lon="1.98691">
        <ele>99.15</ele>
        <time>2016-10-27T08:39:53Z</time>
      </trkpt>
      <trkpt lat="48.60117" lon="1.98694">
        <ele>99.15</ele>
        <time>2016-10-27T08:40:08Z</time>
      </trkpt>
      <trkpt lat="48.60116" lon="1.98696">
        <ele>99.15</ele>
        <time>2016-10-27T08:40:32Z</time>
      </trkpt>
      <trkpt lat="48.60117" lon="1.98698">
        <ele>99.63</ele>
        <time>2016-10-27T08:41:03Z</time>
      </trkpt>
      <trkpt lat="48.60117" lon="1.98699">
        <ele>100.6</ele>
        <time>2016-10-27T08:41:32Z</time>
      </trkpt>
      <trkpt lat="48.60117" lon="1.98699">
        <ele>99.63</ele>
        <time>2016-10-27T08:41:56Z</time>
      </trkpt>
      <trkpt lat="48.60116" lon="1.98699">
        <ele>99.63</ele>
        <time>2016-10-27T08:42:18Z</time>
      </trkpt>
      <trkpt lat="48.60116" lon="1.98698">
        <ele>100.11</ele>
        <time>2016-10-27T08:42:46Z</time>
      </trkpt>
      <trkpt lat="48.60117" lon="1.98698">
        <ele>100.11</ele>
        <time>2016-10-27T08:43:10Z</time>
      </trkpt>
      <trkpt lat="48.60116" lon="1.98698">
        <ele>100.6</ele>
        <time>2016-10-27T08:43:35Z</time>
      </trkpt>
      <trkpt lat="48.60122" lon="1.98693">
        <ele>100.6</ele>
        <time>2016-10-27T08:43:56Z</time>
      </trkpt>
      <trkpt lat="48.60138" lon="1.98672">
        <ele>100.6</ele>
        <time>2016-10-27T08:44:17Z</time>
      </trkpt>
      <trkpt lat="48.60159" lon="1.98653">
        <ele>100.11</ele>
        <time>2016-10-27T08:44:33Z</time>
      </trkpt>
      <trkpt lat="48.6017" lon="1.98646">
        <ele>99.63</ele>
        <time>2016-10-27T08:44:42Z</time>
      </trkpt>
      <trkpt lat="48.60188" lon="1.98624">
        <ele>98.19</ele>
        <time>2016-10-27T08:45:01Z</time>
      </trkpt>
      <trkpt lat="48.60194" lon="1.98615">
        <ele>97.71</ele>
        <time>2016-10-27T08:45:08Z</time>
      </trkpt>
      <trkpt lat="48.60208" lon="1.98597">
        <ele>97.23</ele>
        <time>2016-10-27T08:45:27Z</time>
      </trkpt>
      <trkpt lat="48.60216" lon="1.98591">
        <ele>96.75</ele>
        <time>2016-10-27T08:45:34Z</time>
      </trkpt>
      <trkpt lat="48.60237" lon="1.98572">
        <ele>96.27</ele>
        <time>2016-10-27T08:45:48Z</time>
      </trkpt>
      <trkpt lat="48.60264" lon="1.98544">
        <ele>95.79</ele>
        <time>2016-10-27T08:46:09Z</time>
      </trkpt>
      <trkpt lat="48.6027" lon="1.98537">
        <ele>96.27</ele>
        <time>2016-10-27T08:46:14Z</time>
      </trkpt>
      <trkpt lat="48.60284" lon="1.98521">
        <ele>96.27</ele>
        <time>2016-10-27T08:46:27Z</time>
      </trkpt>
      <trkpt lat="48.60291" lon="1.98505">
        <ele>96.27</ele>
        <time>2016-10-27T08:46:37Z</time>
      </trkpt>
      <trkpt lat="48.60293" lon="1.985">
        <ele>97.71</ele>
        <time>2016-10-27T08:46:40Z</time>
      </trkpt>
      <trkpt lat="48.60311" lon="1.98472">
        <ele>98.19</ele>
        <time>2016-10-27T08:46:56Z</time>
      </trkpt>
      <trkpt lat="48.60328" lon="1.98449">
        <ele>96.75</ele>
        <time>2016-10-27T08:47:15Z</time>
      </trkpt>
      <trkpt lat="48.60329" lon="1.98447">
        <ele>96.75</ele>
        <time>2016-10-27T08:47:16Z</time>
      </trkpt>
      <trkpt lat="48.60332" lon="1.98444">
        <ele>96.27</ele>
        <time>2016-10-27T08:47:18Z</time>
      </trkpt>
      <trkpt lat="48.60348" lon="1.98419">
        <ele>94.83</ele>
        <time>2016-10-27T08:47:35Z</time>
      </trkpt>
      <trkpt lat="48.60369" lon="1.98402">
        <ele>92.9</ele>
        <time>2016-10-27T08:47:53Z</time>
      </trkpt>
      <trkpt lat="48.6038" lon="1.98399">
        <ele>92.9</ele>
        <time>2016-10-27T08:48:01Z</time>
      </trkpt>
      <trkpt lat="48.6041" lon="1.98388">
        <ele>91.94</ele>
        <time>2016-10-27T08:48:20Z</time>
      </trkpt>
      <trkpt lat="48.60435" lon="1.98374">
        <ele>91.94</ele>
        <time>2016-10-27T08:48:40Z</time>
      </trkpt>
      <trkpt lat="48.60462" lon="1.9837">
        <ele>91.94</ele>
        <time>2016-10-27T08:49:00Z</time>
      </trkpt>
      <trkpt lat="48.60499" lon="1.98365">
        <ele>91.94</ele>
        <time>2016-10-27T08:49:23Z</time>
      </trkpt>
      <trkpt lat="48.60509" lon="1.98361">
        <ele>91.94</ele>
        <time>2016-10-27T08:49:29Z</time>
      </trkpt>
      <trkpt lat="48.60517" lon="1.98348">
        <ele>92.9</ele>
        <time>2016-10-27T08:49:42Z</time>
      </trkpt>
      <trkpt lat="48.60506" lon="1.9833">
        <ele>93.39</ele>
        <time>2016-10-27T08:49:58Z</time>
      </trkpt>
      <trkpt lat="48.60489" lon="1.98312">
        <ele>93.87</ele>
        <time>2016-10-27T08:50:14Z</time>
      </trkpt>
      <trkpt lat="48.60482" lon="1.98308">
        <ele>93.87</ele>
        <time>2016-10-27T08:50:18Z</time>
      </trkpt>
      <trkpt lat="48.6046" lon="1.98297">
        <ele>93.87</ele>
        <time>2016-10-27T08:50:36Z</time>
      </trkpt>
      <trkpt lat="48.60443" lon="1.98279">
        <ele>93.39</ele>
        <time>2016-10-27T08:50:52Z</time>
      </trkpt>
      <trkpt lat="48.60418" lon="1.98261">
        <ele>93.39</ele>
        <time>2016-10-27T08:51:09Z</time>
      </trkpt>
      <trkpt lat="48.604" lon="1.98237">
        <ele>93.87</ele>
        <time>2016-10-27T08:51:24Z</time>
      </trkpt>
      <trkpt lat="48.60383" lon="1.98216">
        <ele>94.83</ele>
        <time>2016-10-27T08:51:39Z</time>
      </trkpt>
      <trkpt lat="48.60379" lon="1.9821">
        <ele>94.83</ele>
        <time>2016-10-27T08:51:53Z</time>
      </trkpt>
      <trkpt lat="48.60361" lon="1.98187">
        <ele>95.31</ele>
        <time>2016-10-27T08:52:08Z</time>
      </trkpt>
      <trkpt lat="48.60348" lon="1.98167">
        <ele>95.31</ele>
        <time>2016-10-27T08:52:23Z</time>
      </trkpt>
      <trkpt lat="48.60348" lon="1.98167">
        <ele>96.27</ele>
        <time>2016-10-27T08:52:25Z</time>
      </trkpt>
      <trkpt lat="48.60349" lon="1.9817">
        <ele>95.79</ele>
        <time>2016-10-27T08:52:27Z</time>
      </trkpt>
      <trkpt lat="48.6035" lon="1.98172">
        <ele>96.75</ele>
        <time>2016-10-27T08:52:29Z</time>
      </trkpt>
      <trkpt lat="48.60356" lon="1.98191">
        <ele>95.31</ele>
        <time>2016-10-27T08:52:40Z</time>
      </trkpt>
      <trkpt lat="48.60351" lon="1.982">
        <ele>95.79</ele>
        <time>2016-10-27T08:52:46Z</time>
      </trkpt>
      <trkpt lat="48.60351" lon="1.98218">
        <ele>95.79</ele>
        <time>2016-10-27T08:52:56Z</time>
      </trkpt>
      <trkpt lat="48.60347" lon="1.98234">
        <ele>96.75</ele>
        <time>2016-10-27T08:53:12Z</time>
      </trkpt>
      <trkpt lat="48.60338" lon="1.98251">
        <ele>100.11</ele>
        <time>2016-10-27T08:53:21Z</time>
      </trkpt>
      <trkpt lat="48.60328" lon="1.98264">
        <ele>100.11</ele>
        <time>2016-10-27T08:53:32Z</time>
      </trkpt>
      <trkpt lat="48.6032" lon="1.98265">
        <ele>103</ele>
        <time>2016-10-27T08:53:38Z</time>
      </trkpt>
      <trkpt lat="48.60312" lon="1.98271">
        <ele>104.44</ele>
        <time>2016-10-27T08:53:45Z</time>
      </trkpt>
      <trkpt lat="48.60302" lon="1.98279">
        <ele>105.88</ele>
        <time>2016-10-27T08:53:52Z</time>
      </trkpt>
      <trkpt lat="48.60281" lon="1.98297">
        <ele>106.84</ele>
        <time>2016-10-27T08:54:09Z</time>
      </trkpt>
      <trkpt lat="48.60265" lon="1.98293">
        <ele>107.81</ele>
        <time>2016-10-27T08:54:23Z</time>
      </trkpt>
      <trkpt lat="48.60262" lon="1.98294">
        <ele>107.32</ele>
        <time>2016-10-27T08:54:25Z</time>
      </trkpt>
      <trkpt lat="48.60236" lon="1.98317">
        <ele>106.84</ele>
        <time>2016-10-27T08:54:44Z</time>
      </trkpt>
      <trkpt lat="48.60219" lon="1.98336">
        <ele>104.92</ele>
        <time>2016-10-27T08:55:00Z</time>
      </trkpt>
      <trkpt lat="48.60198" lon="1.98346">
        <ele>103</ele>
        <time>2016-10-27T08:55:17Z</time>
      </trkpt>
      <trkpt lat="48.60194" lon="1.98346">
        <ele>103</ele>
        <time>2016-10-27T08:55:21Z</time>
      </trkpt>
      <trkpt lat="48.6017" lon="1.98365">
        <ele>103.96</ele>
        <time>2016-10-27T08:55:34Z</time>
      </trkpt>
      <trkpt lat="48.60156" lon="1.98367">
        <ele>106.84</ele>
        <time>2016-10-27T08:55:44Z</time>
      </trkpt>
      <trkpt lat="48.60154" lon="1.98367">
        <ele>104.92</ele>
        <time>2016-10-27T08:55:45Z</time>
      </trkpt>
      <trkpt lat="48.60134" lon="1.98388">
        <ele>107.32</ele>
        <time>2016-10-27T08:55:59Z</time>
      </trkpt>
      <trkpt lat="48.60113" lon="1.98398">
        <ele>108.77</ele>
        <time>2016-10-27T08:56:16Z</time>
      </trkpt>
      <trkpt lat="48.601" lon="1.9841">
        <ele>109.25</ele>
        <time>2016-10-27T08:56:31Z</time>
      </trkpt>
      <trkpt lat="48.60099" lon="1.9841">
        <ele>108.77</ele>
        <time>2016-10-27T08:56:32Z</time>
      </trkpt>
      <trkpt lat="48.60092" lon="1.98414">
        <ele>110.21</ele>
        <time>2016-10-27T08:56:36Z</time>
      </trkpt>
      <trkpt lat="48.60084" lon="1.98423">
        <ele>110.69</ele>
        <time>2016-10-27T08:56:42Z</time>
      </trkpt>
      <trkpt lat="48.60079" lon="1.98434">
        <ele>106.84</ele>
        <time>2016-10-27T08:56:50Z</time>
      </trkpt>
      <trkpt lat="48.60079" lon="1.98434">
        <ele>113.57</ele>
        <time>2016-10-27T08:56:51Z</time>
      </trkpt>
      <trkpt lat="48.60079" lon="1.98434">
        <ele>110.21</ele>
        <time>2016-10-27T08:56:53Z</time>
      </trkpt>
      <trkpt lat="48.60077" lon="1.98435">
        <ele>110.21</ele>
        <time>2016-10-27T08:56:56Z</time>
      </trkpt>
      <trkpt lat="48.60055" lon="1.9845">
        <ele>109.73</ele>
        <time>2016-10-27T08:57:16Z</time>
      </trkpt>
      <trkpt lat="48.60048" lon="1.98454">
        <ele>110.21</ele>
        <time>2016-10-27T08:57:21Z</time>
      </trkpt>
      <trkpt lat="48.60026" lon="1.98472">
        <ele>108.77</ele>
        <time>2016-10-27T08:57:38Z</time>
      </trkpt>
      <trkpt lat="48.60011" lon="1.98481">
        <ele>107.32</ele>
        <time>2016-10-27T08:57:54Z</time>
      </trkpt>
      <trkpt lat="48.60012" lon="1.98477">
        <ele>108.29</ele>
        <time>2016-10-27T08:58:21Z</time>
      </trkpt>
      <trkpt lat="48.60013" lon="1.98477">
        <ele>108.29</ele>
        <time>2016-10-27T08:58:35Z</time>
      </trkpt>
      <trkpt lat="48.60009" lon="1.98474">
        <ele>108.77</ele>
        <time>2016-10-27T08:58:43Z</time>
      </trkpt>
      <trkpt lat="48.59999" lon="1.98458">
        <ele>110.21</ele>
        <time>2016-10-27T08:58:57Z</time>
      </trkpt>
      <trkpt lat="48.59986" lon="1.98442">
        <ele>110.21</ele>
        <time>2016-10-27T08:59:10Z</time>
      </trkpt>
      <trkpt lat="48.59975" lon="1.98429">
        <ele>110.69</ele>
        <time>2016-10-27T08:59:18Z</time>
      </trkpt>
      <trkpt lat="48.59963" lon="1.98409">
        <ele>111.17</ele>
        <time>2016-10-27T08:59:32Z</time>
      </trkpt>
      <trkpt lat="48.59947" lon="1.98374">
        <ele>112.61</ele>
        <time>2016-10-27T08:59:51Z</time>
      </trkpt>
      <trkpt lat="48.59943" lon="1.98371">
        <ele>112.13</ele>
        <time>2016-10-27T08:59:55Z</time>
      </trkpt>
      <trkpt lat="48.59922" lon="1.98353">
        <ele>112.13</ele>
        <time>2016-10-27T09:00:12Z</time>
      </trkpt>
      <trkpt lat="48.59918" lon="1.98349">
        <ele>113.09</ele>
        <time>2016-10-27T09:00:16Z</time>
      </trkpt>
      <trkpt lat="48.59898" lon="1.9832">
        <ele>115.01</ele>
        <time>2016-10-27T09:00:38Z</time>
      </trkpt>
      <trkpt lat="48.59896" lon="1.98317">
        <ele>115.01</ele>
        <time>2016-10-27T09:00:40Z</time>
      </trkpt>
      <trkpt lat="48.59875" lon="1.98299">
        <ele>116.94</ele>
        <time>2016-10-27T09:00:52Z</time>
      </trkpt>
      <trkpt lat="48.59861" lon="1.98293">
        <ele>117.9</ele>
        <time>2016-10-27T09:01:02Z</time>
      </trkpt>
      <trkpt lat="48.59843" lon="1.98282">
        <ele>119.82</ele>
        <time>2016-10-27T09:01:15Z</time>
      </trkpt>
      <trkpt lat="48.59819" lon="1.98267">
        <ele>123.67</ele>
        <time>2016-10-27T09:01:33Z</time>
      </trkpt>
      <trkpt lat="48.598" lon="1.98258">
        <ele>126.07</ele>
        <time>2016-10-27T09:01:49Z</time>
      </trkpt>
      <trkpt lat="48.59788" lon="1.98253">
        <ele>129.43</ele>
        <time>2016-10-27T09:02:01Z</time>
      </trkpt>
      <trkpt lat="48.59773" lon="1.98235">
        <ele>130.4</ele>
        <time>2016-10-27T09:02:19Z</time>
      </trkpt>
      <trkpt lat="48.59758" lon="1.98226">
        <ele>132.8</ele>
        <time>2016-10-27T09:02:30Z</time>
      </trkpt>
      <trkpt lat="48.59748" lon="1.98221">
        <ele>133.76</ele>
        <time>2016-10-27T09:02:38Z</time>
      </trkpt>
      <trkpt lat="48.59735" lon="1.98207">
        <ele>135.2</ele>
        <time>2016-10-27T09:02:57Z</time>
      </trkpt>
      <trkpt lat="48.59733" lon="1.98201">
        <ele>134.72</ele>
        <time>2016-10-27T09:03:17Z</time>
      </trkpt>
      <trkpt lat="48.59731" lon="1.98201">
        <ele>135.2</ele>
        <time>2016-10-27T09:03:44Z</time>
      </trkpt>
      <trkpt lat="48.59731" lon="1.98201">
        <ele>134.72</ele>
        <time>2016-10-27T09:03:51Z</time>
      </trkpt>
      <trkpt lat="48.59736" lon="1.98195">
        <ele>134.72</ele>
        <time>2016-10-27T09:03:56Z</time>
      </trkpt>
      <trkpt lat="48.59758" lon="1.98163">
        <ele>133.28</ele>
        <time>2016-10-27T09:04:18Z</time>
      </trkpt>
      <trkpt lat="48.59776" lon="1.98141">
        <ele>133.28</ele>
        <time>2016-10-27T09:04:33Z</time>
      </trkpt>
      <trkpt lat="48.59793" lon="1.98117">
        <ele>132.8</ele>
        <time>2016-10-27T09:04:48Z</time>
      </trkpt>
      <trkpt lat="48.59814" lon="1.98089">
        <ele>133.76</ele>
        <time>2016-10-27T09:05:06Z</time>
      </trkpt>
      <trkpt lat="48.59836" lon="1.98062">
        <ele>135.68</ele>
        <time>2016-10-27T09:05:24Z</time>
      </trkpt>
      <trkpt lat="48.59851" lon="1.98036">
        <ele>135.68</ele>
        <time>2016-10-27T09:05:40Z</time>
      </trkpt>
      <trkpt lat="48.59862" lon="1.98003">
        <ele>135.2</ele>
        <time>2016-10-27T09:05:58Z</time>
      </trkpt>
      <trkpt lat="48.59873" lon="1.97972">
        <ele>133.28</ele>
        <time>2016-10-27T09:06:14Z</time>
      </trkpt>
      <trkpt lat="48.59879" lon="1.97953">
        <ele>129.43</ele>
        <time>2016-10-27T09:06:26Z</time>
      </trkpt>
      <trkpt lat="48.59882" lon="1.97948">
        <ele>129.43</ele>
        <time>2016-10-27T09:06:30Z</time>
      </trkpt>
      <trkpt lat="48.5989" lon="1.97925">
        <ele>126.55</ele>
        <time>2016-10-27T09:06:44Z</time>
      </trkpt>
      <trkpt lat="48.59898" lon="1.97904">
        <ele>122.71</ele>
        <time>2016-10-27T09:06:57Z</time>
      </trkpt>
      <trkpt lat="48.59905" lon="1.97889">
        <ele>119.34</ele>
        <time>2016-10-27T09:07:07Z</time>
      </trkpt>
      <trkpt lat="48.59912" lon="1.97875">
        <ele>117.42</ele>
        <time>2016-10-27T09:07:16Z</time>
      </trkpt>
      <trkpt lat="48.59925" lon="1.97851">
        <ele>115.5</ele>
        <time>2016-10-27T09:07:30Z</time>
      </trkpt>
      <trkpt lat="48.59926" lon="1.97841">
        <ele>115.01</ele>
        <time>2016-10-27T09:07:33Z</time>
      </trkpt>
      <trkpt lat="48.59936" lon="1.97819">
        <ele>114.53</ele>
        <time>2016-10-27T09:07:46Z</time>
      </trkpt>
      <trkpt lat="48.59945" lon="1.97799">
        <ele>113.09</ele>
        <time>2016-10-27T09:07:59Z</time>
      </trkpt>
      <trkpt lat="48.59949" lon="1.97786">
        <ele>112.13</ele>
        <time>2016-10-27T09:08:07Z</time>
      </trkpt>
      <trkpt lat="48.59953" lon="1.97778">
        <ele>112.13</ele>
        <time>2016-10-27T09:08:11Z</time>
      </trkpt>
      <trkpt lat="48.59958" lon="1.97765">
        <ele>111.65</ele>
        <time>2016-10-27T09:08:19Z</time>
      </trkpt>
      <trkpt lat="48.59972" lon="1.97763">
        <ele>109.25</ele>
        <time>2016-10-27T09:08:34Z</time>
      </trkpt>
      <trkpt lat="48.59974" lon="1.97767">
        <ele>108.77</ele>
        <time>2016-10-27T09:08:38Z</time>
      </trkpt>
      <trkpt lat="48.59981" lon="1.97792">
        <ele>106.36</ele>
        <time>2016-10-27T09:08:57Z</time>
      </trkpt>
      <trkpt lat="48.59999" lon="1.97809">
        <ele>103.48</ele>
        <time>2016-10-27T09:09:17Z</time>
      </trkpt>
      <trkpt lat="48.60033" lon="1.97829">
        <ele>103</ele>
        <time>2016-10-27T09:09:37Z</time>
      </trkpt>
      <trkpt lat="48.60055" lon="1.97845">
        <ele>102.04</ele>
        <time>2016-10-27T09:09:57Z</time>
      </trkpt>
      <trkpt lat="48.60059" lon="1.97847">
        <ele>102.04</ele>
        <time>2016-10-27T09:09:59Z</time>
      </trkpt>
      <trkpt lat="48.60083" lon="1.97879">
        <ele>101.56</ele>
        <time>2016-10-27T09:10:16Z</time>
      </trkpt>
      <trkpt lat="48.60106" lon="1.97913">
        <ele>100.6</ele>
        <time>2016-10-27T09:10:36Z</time>
      </trkpt>
      <trkpt lat="48.60125" lon="1.97936">
        <ele>100.11</ele>
        <time>2016-10-27T09:10:53Z</time>
      </trkpt>
      <trkpt lat="48.6013" lon="1.97942">
        <ele>100.11</ele>
        <time>2016-10-27T09:10:58Z</time>
      </trkpt>
      <trkpt lat="48.60155" lon="1.97966">
        <ele>99.63</ele>
        <time>2016-10-27T09:11:17Z</time>
      </trkpt>
      <trkpt lat="48.60177" lon="1.97989">
        <ele>99.63</ele>
        <time>2016-10-27T09:11:37Z</time>
      </trkpt>
      <trkpt lat="48.60197" lon="1.98006">
        <ele>99.15</ele>
        <time>2016-10-27T09:11:51Z</time>
      </trkpt>
      <trkpt lat="48.60218" lon="1.98022">
        <ele>98.67</ele>
        <time>2016-10-27T09:12:05Z</time>
      </trkpt>
      <trkpt lat="48.60227" lon="1.9803">
        <ele>98.67</ele>
        <time>2016-10-27T09:12:12Z</time>
      </trkpt>
      <trkpt lat="48.60244" lon="1.98062">
        <ele>96.75</ele>
        <time>2016-10-27T09:12:32Z</time>
      </trkpt>
      <trkpt lat="48.60261" lon="1.98082">
        <ele>96.27</ele>
        <time>2016-10-27T09:12:46Z</time>
      </trkpt>
      <trkpt lat="48.60283" lon="1.98105">
        <ele>96.27</ele>
        <time>2016-10-27T09:13:04Z</time>
      </trkpt>
      <trkpt lat="48.60294" lon="1.98125">
        <ele>95.79</ele>
        <time>2016-10-27T09:13:21Z</time>
      </trkpt>
      <trkpt lat="48.60317" lon="1.98147">
        <ele>95.31</ele>
        <time>2016-10-27T09:13:39Z</time>
      </trkpt>
      <trkpt lat="48.60335" lon="1.98141">
        <ele>95.31</ele>
        <time>2016-10-27T09:13:50Z</time>
      </trkpt>
      <trkpt lat="48.60356" lon="1.98113">
        <ele>95.31</ele>
        <time>2016-10-27T09:14:13Z</time>
      </trkpt>
      <trkpt lat="48.60376" lon="1.98083">
        <ele>97.23</ele>
        <time>2016-10-27T09:14:34Z</time>
      </trkpt>
      <trkpt lat="48.60389" lon="1.98052">
        <ele>98.19</ele>
        <time>2016-10-27T09:14:51Z</time>
      </trkpt>
      <trkpt lat="48.60406" lon="1.98016">
        <ele>98.67</ele>
        <time>2016-10-27T09:15:10Z</time>
      </trkpt>
      <trkpt lat="48.60419" lon="1.97979">
        <ele>99.15</ele>
        <time>2016-10-27T09:15:30Z</time>
      </trkpt>
      <trkpt lat="48.6044" lon="1.9795">
        <ele>99.63</ele>
        <time>2016-10-27T09:15:48Z</time>
      </trkpt>
      <trkpt lat="48.60454" lon="1.97929">
        <ele>99.63</ele>
        <time>2016-10-27T09:16:01Z</time>
      </trkpt>
      <trkpt lat="48.60464" lon="1.97889">
        <ele>99.63</ele>
        <time>2016-10-27T09:16:20Z</time>
      </trkpt>
      <trkpt lat="48.60469" lon="1.97877">
        <ele>100.11</ele>
        <time>2016-10-27T09:16:27Z</time>
      </trkpt>
      <trkpt lat="48.60492" lon="1.97836">
        <ele>100.11</ele>
        <time>2016-10-27T09:16:49Z</time>
      </trkpt>
      <trkpt lat="48.60505" lon="1.97806">
        <ele>100.11</ele>
        <time>2016-10-27T09:17:05Z</time>
      </trkpt>
      <trkpt lat="48.60518" lon="1.97773">
        <ele>100.6</ele>
        <time>2016-10-27T09:17:25Z</time>
      </trkpt>
      <trkpt lat="48.60525" lon="1.9774">
        <ele>99.63</ele>
        <time>2016-10-27T09:17:44Z</time>
      </trkpt>
      <trkpt lat="48.60533" lon="1.97721">
        <ele>99.63</ele>
        <time>2016-10-27T09:18:00Z</time>
      </trkpt>
      <trkpt lat="48.60538" lon="1.97721">
        <ele>98.67</ele>
        <time>2016-10-27T09:18:20Z</time>
      </trkpt>
      <trkpt lat="48.60539" lon="1.97725">
        <ele>100.11</ele>
        <time>2016-10-27T09:18:30Z</time>
      </trkpt>
      <trkpt lat="48.60541" lon="1.97725">
        <ele>99.15</ele>
        <time>2016-10-27T09:18:40Z</time>
      </trkpt>
      <trkpt lat="48.60545" lon="1.97728">
        <ele>99.15</ele>
        <time>2016-10-27T09:18:45Z</time>
      </trkpt>
      <trkpt lat="48.60548" lon="1.97732">
        <ele>98.67</ele>
        <time>2016-10-27T09:19:02Z</time>
      </trkpt>
      <trkpt lat="48.60548" lon="1.97734">
        <ele>99.15</ele>
        <time>2016-10-27T09:19:15Z</time>
      </trkpt>
      <trkpt lat="48.60542" lon="1.97728">
        <ele>99.63</ele>
        <time>2016-10-27T09:19:30Z</time>
      </trkpt>
      <trkpt lat="48.6054" lon="1.97728">
        <ele>99.63</ele>
        <time>2016-10-27T09:19:42Z</time>
      </trkpt>
      <trkpt lat="48.60535" lon="1.97724">
        <ele>100.11</ele>
        <time>2016-10-27T09:19:53Z</time>
      </trkpt>
      <trkpt lat="48.60532" lon="1.9772">
        <ele>100.6</ele>
        <time>2016-10-27T09:20:04Z</time>
      </trkpt>
      <trkpt lat="48.60523" lon="1.9771">
        <ele>101.08</ele>
        <time>2016-10-27T09:20:22Z</time>
      </trkpt>
      <trkpt lat="48.60514" lon="1.97703">
        <ele>102.04</ele>
        <time>2016-10-27T09:20:39Z</time>
      </trkpt>
      <trkpt lat="48.60511" lon="1.97699">
        <ele>102.04</ele>
        <time>2016-10-27T09:20:45Z</time>
      </trkpt>
      <trkpt lat="48.60486" lon="1.97673">
        <ele>103.96</ele>
        <time>2016-10-27T09:21:07Z</time>
      </trkpt>
      <trkpt lat="48.60465" lon="1.97651">
        <ele>104.44</ele>
        <time>2016-10-27T09:21:26Z</time>
      </trkpt>
      <trkpt lat="48.60454" lon="1.97641">
        <ele>104.92</ele>
        <time>2016-10-27T09:21:33Z</time>
      </trkpt>
      <trkpt lat="48.6044" lon="1.97622">
        <ele>105.88</ele>
        <time>2016-10-27T09:21:43Z</time>
      </trkpt>
      <trkpt lat="48.60426" lon="1.97605">
        <ele>105.88</ele>
        <time>2016-10-27T09:21:56Z</time>
      </trkpt>
      <trkpt lat="48.60422" lon="1.97599">
        <ele>106.84</ele>
        <time>2016-10-27T09:22:01Z</time>
      </trkpt>
      <trkpt lat="48.60412" lon="1.97591">
        <ele>106.84</ele>
        <time>2016-10-27T09:22:09Z</time>
      </trkpt>
      <trkpt lat="48.60407" lon="1.97585">
        <ele>106.84</ele>
        <time>2016-10-27T09:22:13Z</time>
      </trkpt>
      <trkpt lat="48.60398" lon="1.97578">
        <ele>106.84</ele>
        <time>2016-10-27T09:22:18Z</time>
      </trkpt>
      <trkpt lat="48.60392" lon="1.97573">
        <ele>107.32</ele>
        <time>2016-10-27T09:22:22Z</time>
      </trkpt>
      <trkpt lat="48.60379" lon="1.97561">
        <ele>108.77</ele>
        <time>2016-10-27T09:22:33Z</time>
      </trkpt>
      <trkpt lat="48.60369" lon="1.97553">
        <ele>108.29</ele>
        <time>2016-10-27T09:22:39Z</time>
      </trkpt>
      <trkpt lat="48.60365" lon="1.97548">
        <ele>108.77</ele>
        <time>2016-10-27T09:22:43Z</time>
      </trkpt>
      <trkpt lat="48.60357" lon="1.9754">
        <ele>109.25</ele>
        <time>2016-10-27T09:22:48Z</time>
      </trkpt>
      <trkpt lat="48.60346" lon="1.9753">
        <ele>110.21</ele>
        <time>2016-10-27T09:22:58Z</time>
      </trkpt>
      <trkpt lat="48.60335" lon="1.97519">
        <ele>110.69</ele>
        <time>2016-10-27T09:23:09Z</time>
      </trkpt>
      <trkpt lat="48.60329" lon="1.9751">
        <ele>112.13</ele>
        <time>2016-10-27T09:23:17Z</time>
      </trkpt>
      <trkpt lat="48.60307" lon="1.97488">
        <ele>115.5</ele>
        <time>2016-10-27T09:23:35Z</time>
      </trkpt>
      <trkpt lat="48.6029" lon="1.97473">
        <ele>118.86</ele>
        <time>2016-10-27T09:23:51Z</time>
      </trkpt>
      <trkpt lat="48.60289" lon="1.97472">
        <ele>117.9</ele>
        <time>2016-10-27T09:23:52Z</time>
      </trkpt>
      <trkpt lat="48.60281" lon="1.97467">
        <ele>119.82</ele>
        <time>2016-10-27T09:23:59Z</time>
      </trkpt>
      <trkpt lat="48.60278" lon="1.97463">
        <ele>121.26</ele>
        <time>2016-10-27T09:24:05Z</time>
      </trkpt>
      <trkpt lat="48.60265" lon="1.97452">
        <ele>126.07</ele>
        <time>2016-10-27T09:24:18Z</time>
      </trkpt>
      <trkpt lat="48.60263" lon="1.97451">
        <ele>125.11</ele>
        <time>2016-10-27T09:24:19Z</time>
      </trkpt>
      <trkpt lat="48.60259" lon="1.97447">
        <ele>127.03</ele>
        <time>2016-10-27T09:24:24Z</time>
      </trkpt>
      <trkpt lat="48.60251" lon="1.97434">
        <ele>130.4</ele>
        <time>2016-10-27T09:24:40Z</time>
      </trkpt>
      <trkpt lat="48.60251" lon="1.97433">
        <ele>129.92</ele>
        <time>2016-10-27T09:24:41Z</time>
      </trkpt>
      <trkpt lat="48.60236" lon="1.97418">
        <ele>133.28</ele>
        <time>2016-10-27T09:24:56Z</time>
      </trkpt>
      <trkpt lat="48.60201" lon="1.97389">
        <ele>133.28</ele>
        <time>2016-10-27T09:25:17Z</time>
      </trkpt>
      <trkpt lat="48.60175" lon="1.97366">
        <ele>133.76</ele>
        <time>2016-10-27T09:25:35Z</time>
      </trkpt>
      <trkpt lat="48.60158" lon="1.97348">
        <ele>134.24</ele>
        <time>2016-10-27T09:25:54Z</time>
      </trkpt>
      <trkpt lat="48.60152" lon="1.97342">
        <ele>135.2</ele>
        <time>2016-10-27T09:26:09Z</time>
      </trkpt>
      <trkpt lat="48.60154" lon="1.97331">
        <ele>135.2</ele>
        <time>2016-10-27T09:26:23Z</time>
      </trkpt>
      <trkpt lat="48.60155" lon="1.97326">
        <ele>135.2</ele>
        <time>2016-10-27T09:26:30Z</time>
      </trkpt>
      <trkpt lat="48.60169" lon="1.97299">
        <ele>134.72</ele>
        <time>2016-10-27T09:26:51Z</time>
      </trkpt>
      <trkpt lat="48.60186" lon="1.97268">
        <ele>131.84</ele>
        <time>2016-10-27T09:27:10Z</time>
      </trkpt>
      <trkpt lat="48.60195" lon="1.97251">
        <ele>128.95</ele>
        <time>2016-10-27T09:27:20Z</time>
      </trkpt>
      <trkpt lat="48.60205" lon="1.97227">
        <ele>125.59</ele>
        <time>2016-10-27T09:27:32Z</time>
      </trkpt>
      <trkpt lat="48.60213" lon="1.97211">
        <ele>122.22</ele>
        <time>2016-10-27T09:27:44Z</time>
      </trkpt>
      <trkpt lat="48.60223" lon="1.97188">
        <ele>119.34</ele>
        <time>2016-10-27T09:27:57Z</time>
      </trkpt>
      <trkpt lat="48.60234" lon="1.97153">
        <ele>116.94</ele>
        <time>2016-10-27T09:28:15Z</time>
      </trkpt>
      <trkpt lat="48.60239" lon="1.97141">
        <ele>115.5</ele>
        <time>2016-10-27T09:28:34Z</time>
      </trkpt>
      <trkpt lat="48.60245" lon="1.97115">
        <ele>114.53</ele>
        <time>2016-10-27T09:28:49Z</time>
      </trkpt>
      <trkpt lat="48.60246" lon="1.97114">
        <ele>115.01</ele>
        <time>2016-10-27T09:29:08Z</time>
      </trkpt>
      <trkpt lat="48.60246" lon="1.9711">
        <ele>116.46</ele>
        <time>2016-10-27T09:29:22Z</time>
      </trkpt>
      <trkpt lat="48.60231" lon="1.97105">
        <ele>117.9</ele>
        <time>2016-10-27T09:29:41Z</time>
      </trkpt>
      <trkpt lat="48.60203" lon="1.97098">
        <ele>119.82</ele>
        <time>2016-10-27T09:29:58Z</time>
      </trkpt>
      <trkpt lat="48.60188" lon="1.97093">
        <ele>120.78</ele>
        <time>2016-10-27T09:30:07Z</time>
      </trkpt>
      <trkpt lat="48.6016" lon="1.97088">
        <ele>122.71</ele>
        <time>2016-10-27T09:30:22Z</time>
      </trkpt>
      <trkpt lat="48.60144" lon="1.97086">
        <ele>125.11</ele>
        <time>2016-10-27T09:30:34Z</time>
      </trkpt>
      <trkpt lat="48.60119" lon="1.97084">
        <ele>126.55</ele>
        <time>2016-10-27T09:30:54Z</time>
      </trkpt>
      <trkpt lat="48.60117" lon="1.97084">
        <ele>126.07</ele>
        <time>2016-10-27T09:30:56Z</time>
      </trkpt>
      <trkpt lat="48.6011" lon="1.97085">
        <ele>127.03</ele>
        <time>2016-10-27T09:31:01Z</time>
      </trkpt>
      <trkpt lat="48.60089" lon="1.97086">
        <ele>127.99</ele>
        <time>2016-10-27T09:31:19Z</time>
      </trkpt>
      <trkpt lat="48.60074" lon="1.97092">
        <ele>128.47</ele>
        <time>2016-10-27T09:31:35Z</time>
      </trkpt>
      <trkpt lat="48.60052" lon="1.97108">
        <ele>128.47</ele>
        <time>2016-10-27T09:31:48Z</time>
      </trkpt>
      <trkpt lat="48.60033" lon="1.97129">
        <ele>128.47</ele>
        <time>2016-10-27T09:32:05Z</time>
      </trkpt>
      <trkpt lat="48.60032" lon="1.97129">
        <ele>127.99</ele>
        <time>2016-10-27T09:32:06Z</time>
      </trkpt>
      <trkpt lat="48.60018" lon="1.97131">
        <ele>128.47</ele>
        <time>2016-10-27T09:32:21Z</time>
      </trkpt>
      <trkpt lat="48.59997" lon="1.97135">
        <ele>128.47</ele>
        <time>2016-10-27T09:32:36Z</time>
      </trkpt>
      <trkpt lat="48.59976" lon="1.97133">
        <ele>128.95</ele>
        <time>2016-10-27T09:32:48Z</time>
      </trkpt>
      <trkpt lat="48.59971" lon="1.97134">
        <ele>128.95</ele>
        <time>2016-10-27T09:32:54Z</time>
      </trkpt>
      <trkpt lat="48.59966" lon="1.9713">
        <ele>128.47</ele>
        <time>2016-10-27T09:32:59Z</time>
      </trkpt>
      <trkpt lat="48.59958" lon="1.97124">
        <ele>128.47</ele>
        <time>2016-10-27T09:33:09Z</time>
      </trkpt>
      <trkpt lat="48.59942" lon="1.97109">
        <ele>129.43</ele>
        <time>2016-10-27T09:33:22Z</time>
      </trkpt>
      <trkpt lat="48.59939" lon="1.97106">
        <ele>129.43</ele>
        <time>2016-10-27T09:33:24Z</time>
      </trkpt>
      <trkpt lat="48.59925" lon="1.97089">
        <ele>129.92</ele>
        <time>2016-10-27T09:33:36Z</time>
      </trkpt>
      <trkpt lat="48.59913" lon="1.97078">
        <ele>130.88</ele>
        <time>2016-10-27T09:33:47Z</time>
      </trkpt>
      <trkpt lat="48.5991" lon="1.97075">
        <ele>129.92</ele>
        <time>2016-10-27T09:33:50Z</time>
      </trkpt>
      <trkpt lat="48.59889" lon="1.97061">
        <ele>129.92</ele>
        <time>2016-10-27T09:34:07Z</time>
      </trkpt>
      <trkpt lat="48.59863" lon="1.97041">
        <ele>130.4</ele>
        <time>2016-10-27T09:34:24Z</time>
      </trkpt>
      <trkpt lat="48.59845" lon="1.97023">
        <ele>130.4</ele>
        <time>2016-10-27T09:34:40Z</time>
      </trkpt>
      <trkpt lat="48.59822" lon="1.96997">
        <ele>129.43</ele>
        <time>2016-10-27T09:34:59Z</time>
      </trkpt>
      <trkpt lat="48.59797" lon="1.96969">
        <ele>130.4</ele>
        <time>2016-10-27T09:35:20Z</time>
      </trkpt>
      <trkpt lat="48.59777" lon="1.9695">
        <ele>131.36</ele>
        <time>2016-10-27T09:35:38Z</time>
      </trkpt>
      <trkpt lat="48.59768" lon="1.96941">
        <ele>131.36</ele>
        <time>2016-10-27T09:35:46Z</time>
      </trkpt>
      <trkpt lat="48.59764" lon="1.96937">
        <ele>131.36</ele>
        <time>2016-10-27T09:35:49Z</time>
      </trkpt>
      <trkpt lat="48.59746" lon="1.96911">
        <ele>131.36</ele>
        <time>2016-10-27T09:36:07Z</time>
      </trkpt>
      <trkpt lat="48.59738" lon="1.96903">
        <ele>131.36</ele>
        <time>2016-10-27T09:36:27Z</time>
      </trkpt>
      <trkpt lat="48.59741" lon="1.96898">
        <ele>133.28</ele>
        <time>2016-10-27T09:36:48Z</time>
      </trkpt>
      <trkpt lat="48.59747" lon="1.96887">
        <ele>133.76</ele>
        <time>2016-10-27T09:36:58Z</time>
      </trkpt>
      <trkpt lat="48.59764" lon="1.96847">
        <ele>137.13</ele>
        <time>2016-10-27T09:37:16Z</time>
      </trkpt>
      <trkpt lat="48.59774" lon="1.96826">
        <ele>140.49</ele>
        <time>2016-10-27T09:37:33Z</time>
      </trkpt>
      <trkpt lat="48.59787" lon="1.96797">
        <ele>143.85</ele>
        <time>2016-10-27T09:37:48Z</time>
      </trkpt>
      <trkpt lat="48.59802" lon="1.96764">
        <ele>144.34</ele>
        <time>2016-10-27T09:38:05Z</time>
      </trkpt>
      <trkpt lat="48.59817" lon="1.96733">
        <ele>145.3</ele>
        <time>2016-10-27T09:38:24Z</time>
      </trkpt>
      <trkpt lat="48.59831" lon="1.96703">
        <ele>145.78</ele>
        <time>2016-10-27T09:38:43Z</time>
      </trkpt>
      <trkpt lat="48.59831" lon="1.96702">
        <ele>145.78</ele>
        <time>2016-10-27T09:38:44Z</time>
      </trkpt>
      <trkpt lat="48.59848" lon="1.9667">
        <ele>145.78</ele>
        <time>2016-10-27T09:39:04Z</time>
      </trkpt>
      <trkpt lat="48.59858" lon="1.96651">
        <ele>144.82</ele>
        <time>2016-10-27T09:39:15Z</time>
      </trkpt>
      <trkpt lat="48.59879" lon="1.96609">
        <ele>143.85</ele>
        <time>2016-10-27T09:39:40Z</time>
      </trkpt>
      <trkpt lat="48.59881" lon="1.96607">
        <ele>143.37</ele>
        <time>2016-10-27T09:39:57Z</time>
      </trkpt>
      <trkpt lat="48.59882" lon="1.96606">
        <ele>143.37</ele>
        <time>2016-10-27T09:40:01Z</time>
      </trkpt>
      <trkpt lat="48.59882" lon="1.96601">
        <ele>143.85</ele>
        <time>2016-10-27T09:40:04Z</time>
      </trkpt>
      <trkpt lat="48.59882" lon="1.96598">
        <ele>143.85</ele>
        <time>2016-10-27T09:40:06Z</time>
      </trkpt>
      <trkpt lat="48.59868" lon="1.9658">
        <ele>144.82</ele>
        <time>2016-10-27T09:40:22Z</time>
      </trkpt>
      <trkpt lat="48.59853" lon="1.96563">
        <ele>145.78</ele>
        <time>2016-10-27T09:40:35Z</time>
      </trkpt>
      <trkpt lat="48.5983" lon="1.96537">
        <ele>146.26</ele>
        <time>2016-10-27T09:40:53Z</time>
      </trkpt>
      <trkpt lat="48.59807" lon="1.96511">
        <ele>147.22</ele>
        <time>2016-10-27T09:41:13Z</time>
      </trkpt>
      <trkpt lat="48.59788" lon="1.96486">
        <ele>147.7</ele>
        <time>2016-10-27T09:41:30Z</time>
      </trkpt>
      <trkpt lat="48.59767" lon="1.96463">
        <ele>148.18</ele>
        <time>2016-10-27T09:41:49Z</time>
      </trkpt>
      <trkpt lat="48.59752" lon="1.96452">
        <ele>147.7</ele>
        <time>2016-10-27T09:42:01Z</time>
      </trkpt>
      <trkpt lat="48.59739" lon="1.96463">
        <ele>148.18</ele>
        <time>2016-10-27T09:42:12Z</time>
      </trkpt>
      <trkpt lat="48.59724" lon="1.96485">
        <ele>147.7</ele>
        <time>2016-10-27T09:42:29Z</time>
      </trkpt>
      <trkpt lat="48.5971" lon="1.9651">
        <ele>147.7</ele>
        <time>2016-10-27T09:42:46Z</time>
      </trkpt>
      <trkpt lat="48.59706" lon="1.96517">
        <ele>147.7</ele>
        <time>2016-10-27T09:42:51Z</time>
      </trkpt>
      <trkpt lat="48.59689" lon="1.96545">
        <ele>147.22</ele>
        <time>2016-10-27T09:43:10Z</time>
      </trkpt>
      <trkpt lat="48.59686" lon="1.96552">
        <ele>147.22</ele>
        <time>2016-10-27T09:43:15Z</time>
      </trkpt>
      <trkpt lat="48.59677" lon="1.96575">
        <ele>146.74</ele>
        <time>2016-10-27T09:43:34Z</time>
      </trkpt>
      <trkpt lat="48.59677" lon="1.96579">
        <ele>140.01</ele>
        <time>2016-10-27T09:43:49Z</time>
      </trkpt>
      <trkpt lat="48.59677" lon="1.96579">
        <ele>147.22</ele>
        <time>2016-10-27T09:43:50Z</time>
      </trkpt>
      <trkpt lat="48.59677" lon="1.96581">
        <ele>146.74</ele>
        <time>2016-10-27T09:44:04Z</time>
      </trkpt>
      <trkpt lat="48.59677" lon="1.96585">
        <ele>147.22</ele>
        <time>2016-10-27T09:44:26Z</time>
      </trkpt>
      <trkpt lat="48.59677" lon="1.96584">
        <ele>147.22</ele>
        <time>2016-10-27T09:44:47Z</time>
      </trkpt>
      <trkpt lat="48.59676" lon="1.96583">
        <ele>147.7</ele>
        <time>2016-10-27T09:45:09Z</time>
      </trkpt>
      <trkpt lat="48.59676" lon="1.96583">
        <ele>147.22</ele>
        <time>2016-10-27T09:45:40Z</time>
      </trkpt>
      <trkpt lat="48.59676" lon="1.96581">
        <ele>147.22</ele>
        <time>2016-10-27T09:46:02Z</time>
      </trkpt>
      <trkpt lat="48.59677" lon="1.96583">
        <ele>147.7</ele>
        <time>2016-10-27T09:46:23Z</time>
      </trkpt>
      <trkpt lat="48.59677" lon="1.96582">
        <ele>147.7</ele>
        <time>2016-10-27T09:46:44Z</time>
      </trkpt>
      <trkpt lat="48.59678" lon="1.96577">
        <ele>147.22</ele>
        <time>2016-10-27T09:47:00Z</time>
      </trkpt>
      <trkpt lat="48.59681" lon="1.96571">
        <ele>147.7</ele>
        <time>2016-10-27T09:47:06Z</time>
      </trkpt>
      <trkpt lat="48.59685" lon="1.96566">
        <ele>148.18</ele>
        <time>2016-10-27T09:47:10Z</time>
      </trkpt>
      <trkpt lat="48.59699" lon="1.96538">
        <ele>148.66</ele>
        <time>2016-10-27T09:47:30Z</time>
      </trkpt>
      <trkpt lat="48.59715" lon="1.96504">
        <ele>148.66</ele>
        <time>2016-10-27T09:47:48Z</time>
      </trkpt>
      <trkpt lat="48.59729" lon="1.96478">
        <ele>149.14</ele>
        <time>2016-10-27T09:48:04Z</time>
      </trkpt>
      <trkpt lat="48.59732" lon="1.96471">
        <ele>148.66</ele>
        <time>2016-10-27T09:48:08Z</time>
      </trkpt>
      <trkpt lat="48.59738" lon="1.96461">
        <ele>148.66</ele>
        <time>2016-10-27T09:48:13Z</time>
      </trkpt>
      <trkpt lat="48.59742" lon="1.96451">
        <ele>149.14</ele>
        <time>2016-10-27T09:48:18Z</time>
      </trkpt>
      <trkpt lat="48.59726" lon="1.96425">
        <ele>148.66</ele>
        <time>2016-10-27T09:48:35Z</time>
      </trkpt>
      <trkpt lat="48.59705" lon="1.96402">
        <ele>148.66</ele>
        <time>2016-10-27T09:48:54Z</time>
      </trkpt>
      <trkpt lat="48.59685" lon="1.96383">
        <ele>148.66</ele>
        <time>2016-10-27T09:49:11Z</time>
      </trkpt>
      <trkpt lat="48.59664" lon="1.96359">
        <ele>148.66</ele>
        <time>2016-10-27T09:49:30Z</time>
      </trkpt>
      <trkpt lat="48.59646" lon="1.96341">
        <ele>148.18</ele>
        <time>2016-10-27T09:49:45Z</time>
      </trkpt>
      <trkpt lat="48.59625" lon="1.9632">
        <ele>148.18</ele>
        <time>2016-10-27T09:50:02Z</time>
      </trkpt>
      <trkpt lat="48.59606" lon="1.96298">
        <ele>145.3</ele>
        <time>2016-10-27T09:50:19Z</time>
      </trkpt>
      <trkpt lat="48.59593" lon="1.9629">
        <ele>142.41</ele>
        <time>2016-10-27T09:50:31Z</time>
      </trkpt>
      <trkpt lat="48.59583" lon="1.96301">
        <ele>144.34</ele>
        <time>2016-10-27T09:50:39Z</time>
      </trkpt>
      <trkpt lat="48.59577" lon="1.96313">
        <ele>143.85</ele>
        <time>2016-10-27T09:50:46Z</time>
      </trkpt>
      <trkpt lat="48.59562" lon="1.96343">
        <ele>142.89</ele>
        <time>2016-10-27T09:51:03Z</time>
      </trkpt>
      <trkpt lat="48.59547" lon="1.96372">
        <ele>141.93</ele>
        <time>2016-10-27T09:51:19Z</time>
      </trkpt>
      <trkpt lat="48.59534" lon="1.964">
        <ele>140.97</ele>
        <time>2016-10-27T09:51:34Z</time>
      </trkpt>
      <trkpt lat="48.59525" lon="1.96414">
        <ele>140.01</ele>
        <time>2016-10-27T09:51:43Z</time>
      </trkpt>
      <trkpt lat="48.59509" lon="1.96456">
        <ele>137.13</ele>
        <time>2016-10-27T09:52:03Z</time>
      </trkpt>
      <trkpt lat="48.595" lon="1.96485">
        <ele>136.64</ele>
        <time>2016-10-27T09:52:17Z</time>
      </trkpt>
      <trkpt lat="48.59487" lon="1.96513">
        <ele>134.72</ele>
        <time>2016-10-27T09:52:34Z</time>
      </trkpt>
      <trkpt lat="48.59474" lon="1.96542">
        <ele>132.32</ele>
        <time>2016-10-27T09:52:50Z</time>
      </trkpt>
      <trkpt lat="48.59457" lon="1.96577">
        <ele>131.84</ele>
        <time>2016-10-27T09:53:08Z</time>
      </trkpt>
      <trkpt lat="48.59444" lon="1.96604">
        <ele>131.84</ele>
        <time>2016-10-27T09:53:23Z</time>
      </trkpt>
      <trkpt lat="48.59439" lon="1.96609">
        <ele>132.32</ele>
        <time>2016-10-27T09:53:28Z</time>
      </trkpt>
      <trkpt lat="48.59437" lon="1.96611">
        <ele>132.32</ele>
        <time>2016-10-27T09:53:30Z</time>
      </trkpt>
      <trkpt lat="48.59431" lon="1.96612">
        <ele>131.36</ele>
        <time>2016-10-27T09:53:34Z</time>
      </trkpt>
      <trkpt lat="48.59428" lon="1.96609">
        <ele>131.36</ele>
        <time>2016-10-27T09:53:47Z</time>
      </trkpt>
      <trkpt lat="48.59417" lon="1.96592">
        <ele>129.92</ele>
        <time>2016-10-27T09:54:01Z</time>
      </trkpt>
      <trkpt lat="48.59403" lon="1.96576">
        <ele>127.51</ele>
        <time>2016-10-27T09:54:15Z</time>
      </trkpt>
      <trkpt lat="48.59401" lon="1.96575">
        <ele>127.03</ele>
        <time>2016-10-27T09:54:16Z</time>
      </trkpt>
      <trkpt lat="48.59397" lon="1.9657">
        <ele>126.55</ele>
        <time>2016-10-27T09:54:21Z</time>
      </trkpt>
      <trkpt lat="48.59378" lon="1.96552">
        <ele>124.15</ele>
        <time>2016-10-27T09:54:39Z</time>
      </trkpt>
      <trkpt lat="48.59359" lon="1.96535">
        <ele>121.74</ele>
        <time>2016-10-27T09:54:56Z</time>
      </trkpt>
      <trkpt lat="48.59337" lon="1.96514">
        <ele>120.3</ele>
        <time>2016-10-27T09:55:14Z</time>
      </trkpt>
      <trkpt lat="48.59328" lon="1.96505">
        <ele>120.3</ele>
        <time>2016-10-27T09:55:22Z</time>
      </trkpt>
      <trkpt lat="48.59307" lon="1.96491">
        <ele>118.38</ele>
        <time>2016-10-27T09:55:38Z</time>
      </trkpt>
      <trkpt lat="48.59293" lon="1.96485">
        <ele>116.46</ele>
        <time>2016-10-27T09:55:52Z</time>
      </trkpt>
      <trkpt lat="48.59284" lon="1.96485">
        <ele>115.01</ele>
        <time>2016-10-27T09:56:02Z</time>
      </trkpt>
      <trkpt lat="48.59263" lon="1.96495">
        <ele>112.61</ele>
        <time>2016-10-27T09:56:19Z</time>
      </trkpt>
      <trkpt lat="48.59255" lon="1.96507">
        <ele>111.65</ele>
        <time>2016-10-27T09:56:27Z</time>
      </trkpt>
      <trkpt lat="48.59232" lon="1.96535">
        <ele>109.25</ele>
        <time>2016-10-27T09:56:44Z</time>
      </trkpt>
      <trkpt lat="48.5921" lon="1.96548">
        <ele>107.32</ele>
        <time>2016-10-27T09:56:59Z</time>
      </trkpt>
      <trkpt lat="48.59196" lon="1.9657">
        <ele>106.84</ele>
        <time>2016-10-27T09:57:12Z</time>
      </trkpt>
      <trkpt lat="48.59195" lon="1.96572">
        <ele>106.36</ele>
        <time>2016-10-27T09:57:14Z</time>
      </trkpt>
      <trkpt lat="48.59185" lon="1.9659">
        <ele>106.36</ele>
        <time>2016-10-27T09:57:27Z</time>
      </trkpt>
      <trkpt lat="48.59178" lon="1.9661">
        <ele>106.36</ele>
        <time>2016-10-27T09:57:41Z</time>
      </trkpt>
      <trkpt lat="48.59177" lon="1.96614">
        <ele>106.84</ele>
        <time>2016-10-27T09:57:54Z</time>
      </trkpt>
      <trkpt lat="48.59176" lon="1.96614">
        <ele>106.84</ele>
        <time>2016-10-27T09:58:22Z</time>
      </trkpt>
    </trkseg>
  </trk>
</gpx>